Flight Track Log - Related Links

Times and Time Zones

All times are in EDT time to prevent confusion due to time zone crossing. See the DAL268 flight status page for this flight to view local times or setup timezone preferences in your user account.

Time Position Orientation Groundspeed Altitude Reporting Facility
EDT Latitude Longitude Course Direction KTS MPH feet Rate Location/Type
Fri 09:28:21 PM 40.6410 -73.7780 180° South  Level FlightAware ADS-B
Fri 09:37:00 PM 40.5062 -73.3957 123° Southeast  Level FlightAware Approximate
Fri 09:39:00 PM 40.5363 -73.4756 114° Southeast  Level FlightAware Approximate
Fri 09:40:00 PM 40.4833 -73.3134 90° East  Level FlightAware Approximate
Fri 09:40:47 PM 40.6310 -73.7830 37° Northeast 70 81  Level FlightAware ADS-B
Fri 09:41:07 PM 40.6400 -73.7760 31° Northeast 140 161 300 Level FlightAware ADS-B
Fri 09:41:27 PM 40.6530 -73.7660 30° Northeast 172 198 200 1,161 Climbing FlightAware ADS-B
Fri 09:41:38 PM 40.6610 -73.7600 30° Northeast 168 193 600 1,826 Climbing FlightAware ADS-B
Fri 09:41:50 PM 40.6670 -73.7500 52° Northeast 169 194 900 1,412 Climbing FlightAware ADS-B
Fri 09:41:55 PM 40.6690 -73.7460 57° Northeast 171 197 1,000 1,385 Climbing FlightAware ADS-B
Fri 09:42:03 PM 40.6700 -73.7380 81° East 172 198 1,200 2,087 Climbing FlightAware ADS-B
Fri 09:42:18 PM 40.6710 -73.7210 86° East 169 194 1,800 1,886 Climbing FlightAware ADS-B
Fri 09:42:38 PM 40.6690 -73.7010 98° East 171 197 2,300 1,500 Climbing FlightAware ADS-B
Fri 09:42:50 PM 40.6650 -73.6890 114° Southeast 175 201 2,600 1,500 Climbing FlightAware ADS-B
Fri 09:43:10 PM 40.6570 -73.6710 120° Southeast 174 200 3,100 1,333 Climbing FlightAware ADS-B
Fri 09:43:26 PM 40.6500 -73.6550 120° Southeast 183 211 3,400 811 Climbing FlightAware ADS-B
Fri 09:43:47 PM 40.6430 -73.6330 113° Southeast 206 237 3,600 800 Climbing FlightAware ADS-B
Fri 09:44:11 PM 40.6320 -73.6040 117° Southeast 226 260 4,000 955 Climbing FlightAware ADS-B
Fri 09:44:31 PM 40.6220 -73.5780 117° Southeast 243 280 4,300 1,161 Climbing FlightAware ADS-B
Fri 09:44:42 PM 40.6160 -73.5630 118° Southeast 251 289 4,600 1,667 Climbing FlightAware ADS-B
Fri 09:45:07 PM 40.6030 -73.5290 117° Southeast 263 303 5,300 1,467 Climbing FlightAware ADS-B
Fri 09:45:27 PM 40.5920 -73.4990 116° Southeast 277 319 5,700 2,057 Climbing FlightAware ADS-B
Fri 09:45:42 PM 40.5834 -73.4747 115° Southeast 276 318 6,500 2,459 Climbing FlightAware ADS-B (KSNC)
Fri 09:46:28 PM 40.5560 -73.4050 117° Southeast 287 330 8,200 2,118 Climbing FlightAware ADS-B
Fri 09:46:50 PM 40.5430 -73.3700 116° Southeast 297 342 8,900 1,857 Climbing FlightAware ADS-B
Fri 09:47:10 PM 40.5290 -73.3380 120° Southeast 305 351 9,500 1,636 Climbing FlightAware ADS-B
Fri 09:47:45 PM 40.5060 -73.2790 117° Southeast 328 377 10,400 1,200 Climbing FlightAware ADS-B
Fri 09:48:15 PM 40.4870 -73.2220 114° Southeast 356 410 10,800 900 Climbing FlightAware ADS-B
Fri 09:48:25 PM 40.4844 -73.1999 99° East 276 318 11,000 1,000 Climbing FlightAware ADS-B (KSNC)
Fri 09:48:39 PM 40.4848 -73.1797 89° East 377 434 11,200 1,254 Climbing FlightAware ADS-B (KSNC)
Fri 09:49:32 PM 40.5289 -73.0575 65° Northeast 413 475 12,400 1,500 Climbing FlightAware ADS-B (KSNC)
Fri 09:50:07 PM 40.5586 -72.9716 65° Northeast 429 494 13,400 1,800 Climbing FlightAware ADS-B (KSNC)
Fri 09:50:42 PM 40.5849 -72.8882 67° East 437 503 14,500 1,970 Climbing FlightAware ADS-B (KSNC)
Fri 09:51:14 PM 40.6080 -72.8128 68° East 443 510 15,600 1,886 Climbing FlightAware ADS-B (KSNC)
Fri 09:51:52 PM 40.6390 -72.7101 68° East 455 524 16,700 1,629 Climbing FlightAware ADS-B (KSNC)
Fri 09:52:24 PM 40.6597 -72.6407 68° East 462 532 17,500 1,548 Climbing FlightAware ADS-B (KSNC)
Fri 09:52:54 PM 40.6866 -72.5513 68° East 469 540 18,300 1,754 Climbing FlightAware ADS-B (KSNC)
Fri 09:53:29 PM 40.7148 -72.4579 68° East 473 544 19,400 1,662 Climbing FlightAware ADS-B (KSNC)
Fri 09:53:59 PM 40.7396 -72.3760 68° East 479 551 20,100 1,440 Climbing FlightAware ADS-B (KSNC)
Fri 09:54:44 PM 40.7760 -72.2550 68° East 484 557 21,200 1,443 Climbing FlightAware ADS-B
Fri 09:55:18 PM 40.7935 -72.1973 68° East 489 563 22,000 1,268 Climbing FlightAware ADS-B (KSNC)
Fri 09:55:55 PM 40.8350 -72.0600 68° East 497 572 22,700 1,099 Climbing FlightAware ADS-B
Fri 09:56:29 PM 40.8640 -71.9590 69° East 505 581 23,300 1,183 Climbing FlightAware ADS-B
Fri 09:57:06 PM 40.8960 -71.8530 68° East 509 586 24,100 1,250 Climbing FlightAware ADS-B
Fri 09:57:41 PM 40.9260 -71.7510 69° East 515 593 24,800 1,059 Climbing FlightAware ADS-B
Fri 09:58:14 PM 40.9550 -71.6530 69° East 519 597 25,300 1,043 Climbing FlightAware ADS-B
Fri 09:58:50 PM 40.9860 -71.5460 69° East 524 603 26,000 1,151 Climbing FlightAware ADS-B
Fri 09:59:27 PM 41.0190 -71.4350 68° East 525 604 26,700 1,151 Climbing FlightAware ADS-B
Fri 10:00:03 PM 41.0500 -71.3300 69° East 525 604 27,400 1,075 Climbing FlightAware ADS-B
Fri 10:00:34 PM 41.0780 -71.2330 69° East 527 606 27,900 1,075 Climbing FlightAware ADS-B
Fri 10:01:10 PM 41.1090 -71.1250 69° East 529 609 28,600 1,114 Climbing FlightAware ADS-B
Fri 10:01:44 PM 41.1390 -71.0200 69° East 530 610 29,200 1,059 Climbing FlightAware ADS-B
Fri 10:02:18 PM 41.1680 -70.9180 69° East 530 610 29,800 1,167 Climbing FlightAware ADS-B
Fri 10:02:56 PM 41.2010 -70.8020 69° East 529 609 30,600 1,054 Climbing FlightAware ADS-B
Fri 10:03:32 PM 41.2310 -70.6970 69° East 529 609 31,100 423 Climbing FlightAware ADS-B
Fri 10:04:07 PM 41.2620 -70.5880 69° East 527 606 31,100  Level FlightAware ADS-B
Fri 10:04:40 PM 41.2900 -70.4880 70° East 526 605 31,100  Level FlightAware ADS-B
Fri 10:05:15 PM 41.3200 -70.3820 69° East 526 605 31,100  Level FlightAware ADS-B
Fri 10:05:51 PM 41.3500 -70.2740 70° East 526 605 31,100  Level FlightAware ADS-B
Fri 10:06:38 PM 41.3870 -70.1440 69° East 527 606 31,100  Level FlightAware ADS-B
Fri 10:07:15 PM 41.4150 -70.0480 69° East 527 606 31,100  Level FlightAware ADS-B
Fri 10:07:53 PM 41.4430 -69.9500 69° East 527 606 31,100  Level FlightAware ADS-B
Fri 10:08:29 PM 41.4700 -69.8570 69° East 527 606 31,100  Level FlightAware ADS-B
Fri 10:09:05 PM 41.4960 -69.7640 70° East 527 606 31,100  Level FlightAware ADS-B
Fri 10:09:41 PM 41.5230 -69.6710 69° East 527 606 31,100  Level FlightAware ADS-B
Fri 10:10:17 PM 41.5500 -69.5780 69° East 527 606 31,100  Level FlightAware ADS-B
Fri 10:10:50 PM 41.6040 -69.3480 72° East 539 620 31,100  Level FlightAware ADS-B
Fri 10:11:21 PM 41.6190 -69.2900 71° East 541 623 31,100  Level FlightAware ADS-B
Fri 10:12:15 PM 41.6720 -69.0930 70° East 541 623 31,100  Level FlightAware ADS-B
Fri 10:12:51 PM 41.6980 -68.9970 70° East 541 623 31,100  Level FlightAware ADS-B
Fri 10:13:28 PM 41.7250 -68.8980 70° East 541 623 31,100  Level FlightAware ADS-B
Fri 10:14:04 PM 41.7510 -68.8010 70° East 541 623 31,100  Level FlightAware ADS-B
Fri 10:14:40 PM 41.7780 -68.7050 69° East 541 623 31,100  Level FlightAware ADS-B
Fri 10:15:16 PM 41.8040 -68.6080 70° East 541 623 31,100  Level FlightAware ADS-B
Fri 10:15:52 PM 41.8300 -68.5120 70° East 541 623 31,100  Level FlightAware ADS-B
Fri 10:16:28 PM 41.8560 -68.4150 70° East 541 623 31,100  Level FlightAware ADS-B
Fri 10:17:05 PM 41.8830 -68.3160 70° East 541 623 31,100  Level FlightAware ADS-B
Fri 10:17:11 PM 41.9186 -68.1466 74° East 543 625 31,100 -74 Level FlightAware ADS-B
Fri 10:18:26 PM 41.9608 -67.9444 74° East 534 615 31,000 -44 Descending Boston Center
Fri 10:19:27 PM 42.0119 -67.7589 70° East 529 609 31,000  Level Boston Center
Fri 10:20:27 PM 42.0600 -67.5678 71° East 529 609 31,000  Level Boston Center
Fri 10:21:25 PM 42.1078 -67.3708 72° East 536 617 31,000  Level Boston Center
Fri 10:22:27 PM 42.1531 -67.1767 72° East 536 617 31,000  Level Boston Center
Fri 10:23:14 PM 42.1833 -66.9833 78° East 550 633 31,000 56 Level Moncton Center
Fri 10:24:14 PM 42.2333 -66.7833 71° East 560 644 31,100  Climbing Moncton Center
Fri 10:25:14 PM 42.2833 -66.5833 71° East 560 644 31,000  Descending Moncton Center
Fri 10:26:14 PM 42.3333 -66.3833 71° East 550 633 31,100 50 Climbing Moncton Center
Fri 10:27:14 PM 42.3833 -66.2000 70° East 550 633 31,100  Level Moncton Center
Fri 10:28:14 PM 42.4333 -66.0000 71° East 560 644 31,100  Level Moncton Center
Fri 10:29:14 PM 42.4833 -65.8000 71° East 560 644 31,100 -50 Level Moncton Center
Fri 10:30:14 PM 42.5500 -65.6000 66° East 560 644 31,000  Descending Moncton Center
Fri 10:31:14 PM 42.6000 -65.4167 70° East 550 633 31,100 50 Climbing Moncton Center
Fri 10:32:14 PM 42.6500 -65.2167 71° East 550 633 31,100  Level Moncton Center
Fri 10:33:14 PM 42.6833 -65.0167 77° East 550 633 31,100  Level Moncton Center
Fri 10:34:14 PM 42.7333 -64.8000 72° East 550 633 31,100 -50 Level Moncton Center
Fri 10:35:14 PM 42.7833 -64.6167 70° East 550 633 31,000  Descending Moncton Center
Fri 10:36:14 PM 42.8333 -64.4167 71° East 550 633 31,100 50 Climbing Moncton Center
Fri 10:37:14 PM 42.8833 -64.2167 71° East 540 621 31,100  Level Moncton Center
Fri 10:38:14 PM 42.9167 -64.0333 76° East 550 633 31,100  Level Moncton Center
Fri 10:39:14 PM 42.9667 -63.8333 71° East 550 633 31,100  Level Moncton Center
Fri 10:40:14 PM 43.0167 -63.6500 69° East 540 621 31,100  Level Moncton Center
Fri 10:41:14 PM 43.0667 -63.4333 72° East 550 633 31,100  Level Moncton Center
Fri 10:42:14 PM 43.1167 -63.2333 71° East 550 633 31,100 -50 Level Moncton Center
Fri 10:43:14 PM 43.1500 -63.0500 76° East 550 633 31,000  Descending Moncton Center
Fri 10:44:14 PM 43.1833 -62.8333 78° East 550 633 31,100 50 Climbing Moncton Center
Fri 10:45:14 PM 43.2333 -62.6333 71° East 550 633 31,100  Level Moncton Center
Fri 10:46:14 PM 43.2833 -62.4167 72° East 550 633 31,100 -50 Level Moncton Center
Fri 10:47:14 PM 43.3333 -62.2333 69° East 550 633 31,000  Descending Moncton Center
Fri 10:48:14 PM 43.3833 -62.0333 71° East 550 633 31,100 50 Climbing Moncton Center
Fri 10:49:14 PM 43.4167 -61.8167 78° East 550 633 31,100  Level Moncton Center
Fri 10:50:14 PM 43.4500 -61.6167 77° East 550 633 31,100  Level Moncton Center
Fri 10:51:14 PM 43.5000 -61.4333 69° East 550 633 31,100  Level Moncton Center
Fri 10:52:14 PM 43.5333 -61.2167 78° East 550 633 31,100  Level Moncton Center
Fri 10:53:14 PM 43.5833 -61.0000 72° East 550 633 31,100  Level Moncton Center
Fri 10:54:14 PM 43.6333 -60.8167 69° East 550 633 31,100  Level Moncton Center
Fri 10:55:14 PM 43.6667 -60.6000 78° East 550 633 31,100  Level Moncton Center
Fri 10:56:14 PM 43.7167 -60.4000 71° East 550 633 31,100  Level Moncton Center
Fri 11:02:22 PM 43.9750 -59.1390 71° East 561 646 31,100  Level FlightAware ADS-B
Fri 11:03:15 PM 44.0090 -58.9620 75° East 562 647 31,100  Level FlightAware ADS-B
Fri 11:03:46 PM 44.0300 -58.8440 76° East 563 648 31,100  Level FlightAware ADS-B
Fri 11:04:35 PM 44.0600 -58.6830 75° East 562 647 31,100  Level FlightAware ADS-B
Fri 11:05:11 PM 44.0800 -58.5760 75° East 562 647 31,100  Level FlightAware ADS-B
Fri 11:05:47 PM 44.1010 -58.4690 75° East 562 647 31,100  Level FlightAware ADS-B
Fri 11:06:24 PM 44.1220 -58.3590 75° East 562 647 31,100  Level FlightAware ADS-B
Fri 11:07:00 PM 44.1430 -58.2520 75° East 562 647 31,100  Level FlightAware ADS-B
Fri 11:07:31 PM 44.1720 -58.0490 79° East 570 656 31,100  Level FlightAware ADS-B
Fri 11:08:05 PM 44.1930 -57.9290 76° East 570 656 31,100  Level FlightAware ADS-B
Fri 11:08:52 PM 44.2200 -57.7710 77° East 571 657 31,100  Level FlightAware ADS-B
Fri 11:09:25 PM 44.2420 -57.6400 77° East 572 658 31,100  Level FlightAware ADS-B
Fri 11:10:11 PM 44.2710 -57.4720 76° East 573 659 31,100  Level FlightAware ADS-B
Fri 11:10:47 PM 44.2920 -57.3440 77° East 574 661 31,100  Level FlightAware ADS-B
Fri 11:11:20 PM 44.3130 -57.2230 76° East 574 661 31,100  Level FlightAware ADS-B
Fri 11:12:03 PM 44.3360 -57.0900 76° East 574 661 31,100  Level FlightAware ADS-B
Fri 11:12:39 PM 44.3560 -56.9790 76° East 574 661 31,100  Level FlightAware ADS-B
Fri 11:13:15 PM 44.3750 -56.8690 76° East 574 661 31,100  Level FlightAware ADS-B
Fri 11:13:52 PM 44.3960 -56.7560 75° East 574 661 31,100  Level FlightAware ADS-B
Fri 11:14:28 PM 44.4150 -56.6450 76° East 574 661 31,100  Level FlightAware ADS-B
Fri 11:15:04 PM 44.4350 -56.5350 76° East 574 661 31,100  Level FlightAware ADS-B
Fri 11:15:41 PM 44.4550 -56.4210 76° East 574 661 31,100  Level FlightAware ADS-B
Fri 11:16:17 PM 44.4750 -56.3110 76° East 574 661 31,100  Level FlightAware ADS-B
Fri 11:16:55 PM 44.4950 -56.1940 76° East 574 661 31,100  Level FlightAware ADS-B
Fri 11:17:31 PM 44.5150 -56.0840 76° East 574 661 31,100  Level FlightAware ADS-B
Fri 11:18:07 PM 44.5350 -55.9730 76° East 574 661 31,100  Level FlightAware ADS-B
Fri 11:18:43 PM 44.5540 -55.8620 76° East 574 661 31,100  Level FlightAware ADS-B
Fri 11:19:19 PM 44.5740 -55.7520 76° East 574 661 31,100  Level FlightAware ADS-B
Fri 11:19:55 PM 44.5940 -55.6410 76° East 574 661 31,100 845 Level FlightAware ADS-B
Fri 11:20:30 PM 44.5940 -55.1820 90° East 597 687 32,100 845 Climbing FlightAware ADS-B
Fri 11:21:06 PM 44.6080 -55.0390 82° East 598 688 32,100  Level FlightAware ADS-B
Fri 11:21:39 PM 44.6210 -54.9130 82° East 597 687 32,100  Level FlightAware ADS-B
Fri 11:22:13 PM 44.6340 -54.7830 82° East 598 688 32,100  Level FlightAware ADS-B
Fri 11:22:48 PM 44.6480 -54.6470 82° East 599 689 32,100  Level FlightAware ADS-B
Fri 11:23:23 PM 44.6610 -54.5150 82° East 601 692 32,100  Level FlightAware ADS-B
Fri 11:24:00 PM 44.6750 -54.3700 82° East 603 694 32,100  Level FlightAware ADS-B
Fri 11:24:33 PM 44.6870 -54.2450 82° East 602 693 32,100  Level FlightAware ADS-B
Fri 11:25:07 PM 44.7000 -54.1110 82° East 602 693 32,100  Level FlightAware ADS-B
Fri 11:25:44 PM 44.7130 -53.9680 83° East 602 693 32,100  Level FlightAware ADS-B
Fri 11:26:17 PM 44.7240 -53.8440 83° East 601 692 32,100  Level FlightAware ADS-B
Fri 11:26:53 PM 44.7370 -53.7030 83° East 602 693 32,100  Level FlightAware ADS-B
Fri 11:27:29 PM 44.7500 -53.5660 82° East 603 694 32,100  Level FlightAware ADS-B
Fri 11:28:05 PM 44.7620 -53.4210 83° East 604 695 32,100  Level FlightAware ADS-B
Fri 11:28:38 PM 44.7740 -53.2940 82° East 604 695 32,100  Level FlightAware ADS-B
Fri 11:29:14 PM 44.7860 -53.1540 83° East 605 696 32,100  Level FlightAware ADS-B
Fri 11:29:49 PM 44.7980 -53.0120 83° East 606 697 32,100  Level FlightAware ADS-B
Fri 11:30:23 PM 44.8080 -52.8820 84° East 606 697 32,100  Level FlightAware ADS-B
Fri 11:30:58 PM 44.8200 -52.7450 83° East 607 699 32,100  Level FlightAware ADS-B
Fri 11:31:35 PM 44.8320 -52.5980 83° East 608 700 32,100  Level FlightAware ADS-B
Fri 11:32:07 PM 44.8420 -52.4700 84° East 609 701 32,100  Level FlightAware ADS-B
Fri 11:32:42 PM 44.8530 -52.3340 83° East 610 702 32,100  Level FlightAware ADS-B
Fri 11:33:19 PM 44.8640 -52.1890 84° East 612 704 32,100  Level FlightAware ADS-B
Fri 11:33:55 PM 44.8750 -52.0440 84° East 614 707 32,100  Level FlightAware ADS-B
Fri 11:34:29 PM 44.8850 -51.9100 84° East 615 708 32,100  Level FlightAware ADS-B
Fri 11:35:05 PM 44.8960 -51.7640 84° East 617 710 32,100  Level FlightAware ADS-B
Fri 11:35:38 PM 44.9050 -51.6320 84° East 618 711 32,100  Level FlightAware ADS-B
Fri 11:36:15 PM 44.9150 -51.4890 84° East 619 712 32,100  Level FlightAware ADS-B
Fri 11:36:49 PM 44.9250 -51.3470 84° East 620 713 32,100  Level FlightAware ADS-B
Fri 11:37:21 PM 44.9340 -51.2250 84° East 620 713 32,100  Level FlightAware ADS-B
Fri 11:38:00 PM 44.9430 -51.0910 85° East 620 713 32,100  Level FlightAware ADS-B
Fri 11:38:48 PM 44.9570 -50.8820 85° East 621 715 32,100  Level FlightAware ADS-B
Fri 11:39:24 PM 44.9660 -50.7590 84° East 621 715 32,100  Level FlightAware ADS-B
Fri 11:40:00 PM 44.9760 -50.6350 83° East 621 715 32,100  Level FlightAware ADS-B
Fri 11:40:37 PM 44.9850 -50.5080 84° East 621 715 32,100  Level FlightAware ADS-B
Fri 11:41:13 PM 44.9940 -50.3850 84° East 621 715 32,100  Level FlightAware ADS-B
Fri 11:41:50 PM 45.0040 -50.2570 84° East 621 715 32,100  Level FlightAware ADS-B
Fri 11:42:26 PM 45.0130 -50.1340 84° East 621 715 32,100  Level FlightAware ADS-B
Fri 11:43:02 PM 45.0220 -50.0100 84° East 621 715 32,100  Level FlightAware ADS-B
Fri 11:43:40 PM 45.0320 -49.8800 84° East 621 715 32,100  Level FlightAware ADS-B
Fri 11:44:16 PM 45.0410 -49.7560 84° East 621 715 32,100  Level FlightAware ADS-B
Fri 11:44:52 PM 45.0500 -49.6320 84° East 621 715 32,100  Level FlightAware ADS-B
Fri 11:45:28 PM 45.0590 -49.5080 84° East 621 715 32,100  Level FlightAware ADS-B
Fri 11:46:05 PM 45.0690 -49.3810 84° East 621 715 32,100  Level FlightAware ADS-B
Fri 11:46:41 PM 45.0780 -49.2570 84° East 621 715 32,100  Level FlightAware ADS-B
Fri 11:47:17 PM 45.0870 -49.1330 84° East 621 715 32,100  Level FlightAware ADS-B
Fri 11:47:54 PM 45.0960 -49.0060 84° East 621 715 32,100 -2 Level FlightAware ADS-B
Fri 11:55:00 PM 45.4441 -47.6252 71° East  Level Estimated
Fri 11:56:00 PM 45.4917 -47.4293 71° East  Level FlightAware Approximate
Fri 11:57:00 PM 45.5389 -47.2331 71° East  Level FlightAware Approximate
Fri 11:58:00 PM 45.5858 -47.0366 71° East  Level FlightAware Approximate
Fri 11:59:00 PM 45.6323 -46.8397 71° East  Level FlightAware Approximate
Sat 12:00:00 AM 45.6785 -46.6425 71° East  Level FlightAware Approximate
Sat 12:01:00 AM 45.7244 -46.4449 72° East  Level FlightAware Approximate
Sat 12:02:00 AM 45.7699 -46.2471 72° East  Level FlightAware Approximate
Sat 12:03:00 AM 45.8151 -46.0489 72° East  Level FlightAware Approximate
Sat 12:04:00 AM 45.8599 -45.8504 72° East  Level FlightAware Approximate
Sat 12:05:00 AM 45.9044 -45.6516 72° East  Level FlightAware Approximate
Sat 12:06:00 AM 45.9486 -45.4525 72° East  Level FlightAware Approximate
Sat 12:07:00 AM 45.9924 -45.2530 72° East  Level FlightAware Approximate
Sat 12:08:00 AM 46.0359 -45.0532 73° East  Level FlightAware Approximate
Sat 12:09:00 AM 46.0790 -44.8532 73° East  Level FlightAware Approximate
Sat 12:10:00 AM 46.1217 -44.6528 73° East  Level FlightAware Approximate
Sat 12:11:00 AM 46.1641 -44.4521 73° East  Level FlightAware Approximate
Sat 12:12:00 AM 46.2062 -44.2511 73° East  Level FlightAware Approximate
Sat 12:13:00 AM 46.2479 -44.0498 73° East  Level FlightAware Approximate
Sat 12:14:00 AM 46.2892 -43.8481 73° East  Level FlightAware Approximate
Sat 12:15:00 AM 46.3302 -43.6462 74° East  Level FlightAware Approximate
Sat 12:16:00 AM 46.3709 -43.4440 74° East  Level FlightAware Approximate
Sat 12:17:00 AM 46.4112 -43.2415 74° East  Level FlightAware Approximate
Sat 12:18:00 AM 46.4511 -43.0387 74° East  Level FlightAware Approximate
Sat 12:19:00 AM 46.4907 -42.8355 74° East  Level FlightAware Approximate
Sat 12:20:00 AM 46.5299 -42.6321 74° East  Level FlightAware Approximate
Sat 12:21:00 AM 46.5687 -42.4284 74° East  Level FlightAware Approximate
Sat 12:22:00 AM 46.6072 -42.2244 75° East  Level FlightAware Approximate
Sat 12:23:00 AM 46.6453 -42.0201 75° East  Level FlightAware Approximate
Sat 12:24:00 AM 46.6831 -41.8156 75° East  Level FlightAware Approximate
Sat 12:25:00 AM 46.7205 -41.6107 75° East  Level FlightAware Approximate
Sat 12:26:00 AM 46.7575 -41.4056 75° East  Level FlightAware Approximate
Sat 12:27:00 AM 46.7941 -41.2001 75° East  Level FlightAware Approximate
Sat 12:28:00 AM 46.8304 -40.9944 75° East  Level FlightAware Approximate
Sat 12:28:00 AM 47.0000 -40.0000 78° East 545 627 32,000  Level ETMS Enhanced Traffic Management System
Sat 12:28:54 AM 47.0000 -40.0000 78° East 545 627 32,000  Level ETMS Enhanced Traffic Management System
Sat 12:29:00 AM 46.8663 -40.7885 76° East  Level FlightAware Approximate
Sat 12:30:00 AM 46.9019 -40.5822 76° East  Level FlightAware Approximate
Sat 12:31:00 AM 46.9371 -40.3757 76° East  Level FlightAware Approximate
Sat 12:32:00 AM 46.9719 -40.1689 76° East  Level FlightAware Approximate
Sat 12:33:00 AM 47.0067 -39.9541 78° East  Level FlightAware Approximate
Sat 12:34:00 AM 47.2691 -38.0329 79° East 545 627 32,000  Level FlightAware Transoceanic
Sat 12:35:00 AM 47.2969 -37.8132 80° East 545 627 32,000  Level FlightAware Transoceanic
Sat 12:36:00 AM 47.3243 -37.5932 80° East 545 627 32,000  Level FlightAware Transoceanic
Sat 12:37:00 AM 47.3512 -37.3730 80° East 545 627 32,000  Level FlightAware Transoceanic
Sat 12:38:00 AM 47.3778 -37.1525 80° East 545 627 32,000  Level FlightAware Transoceanic
Sat 12:39:00 AM 47.4039 -36.9318 80° East 545 627 32,000  Level FlightAware Transoceanic
Sat 12:40:00 AM 47.4296 -36.7110 80° East 545 627 32,000  Level FlightAware Transoceanic
Sat 12:41:00 AM 47.4549 -36.4899 80° East 545 627 32,000  Level FlightAware Transoceanic
Sat 12:42:00 AM 47.4797 -36.2686 81° East 545 627 32,000  Level FlightAware Transoceanic
Sat 12:43:00 AM 47.5042 -36.0470 81° East 545 627 32,000  Level FlightAware Transoceanic
Sat 12:44:00 AM 47.5282 -35.8253 81° East 545 627 32,000  Level FlightAware Transoceanic
Sat 12:45:00 AM 47.5517 -35.6034 81° East 545 627 32,000  Level FlightAware Transoceanic
Sat 12:46:00 AM 47.5749 -35.3813 81° East 545 627 32,000  Level FlightAware Transoceanic
Sat 12:47:00 AM 47.5976 -35.1590 81° East 545 627 32,000  Level FlightAware Transoceanic
Sat 12:48:00 AM 47.6199 -34.9365 82° East 545 627 32,000  Level FlightAware Transoceanic
Sat 12:49:00 AM 47.6417 -34.7138 82° East 545 627 32,000  Level FlightAware Transoceanic
Sat 12:50:00 AM 47.6631 -34.4909 82° East 545 627 32,000  Level FlightAware Transoceanic
Sat 12:51:00 AM 47.6841 -34.2678 82° East 545 627 32,000  Level FlightAware Transoceanic
Sat 12:52:00 AM 47.7047 -34.0446 82° East 545 627 32,000  Level FlightAware Transoceanic
Sat 12:53:00 AM 47.7248 -33.8212 82° East 545 627 32,000  Level FlightAware Transoceanic
Sat 12:54:00 AM 47.7445 -33.5976 83° East 545 627 32,000  Level FlightAware Transoceanic
Sat 12:55:00 AM 47.7637 -33.3739 83° East 545 627 32,000  Level FlightAware Transoceanic
Sat 12:56:00 AM 47.7826 -33.1499 83° East 545 627 32,000  Level FlightAware Transoceanic
Sat 12:57:00 AM 47.8009 -32.9259 83° East 545 627 32,000  Level FlightAware Transoceanic
Sat 12:58:00 AM 47.8189 -32.7016 83° East 545 627 32,000  Level FlightAware Transoceanic
Sat 12:59:00 AM 47.8364 -32.4773 83° East 545 627 32,000  Level FlightAware Transoceanic
Sat 01:00:00 AM 47.8535 -32.2527 84° East 545 627 32,000  Level FlightAware Transoceanic
Sat 01:01:00 AM 47.8701 -32.0281 84° East 545 627 32,000  Level FlightAware Transoceanic
Sat 01:02:00 AM 47.8863 -31.8032 84° East 545 627 32,000  Level FlightAware Transoceanic
Sat 01:03:00 AM 47.9021 -31.5783 84° East 545 627 32,000  Level FlightAware Transoceanic
Sat 01:04:00 AM 47.9174 -31.3532 84° East 545 627 32,000  Level FlightAware Transoceanic
Sat 01:05:00 AM 47.9322 -31.1280 84° East 545 627 32,000  Level FlightAware Transoceanic
Sat 01:06:00 AM 47.9467 -30.9026 85° East 545 627 32,000  Level FlightAware Transoceanic
Sat 01:07:00 AM 47.9607 -30.6771 85° East 545 627 32,000  Level FlightAware Transoceanic
Sat 01:08:00 AM 47.9742 -30.4515 85° East 545 627 32,000  Level FlightAware Transoceanic
Sat 01:09:00 AM 47.9873 -30.2258 85° East 545 627 32,000  Level FlightAware Transoceanic
Sat 01:10:00 AM 47.9995 -30.0093 85° East  Level FlightAware Approximate
Sat 01:11:00 AM 48.0113 -29.7928 85° East  Level FlightAware Approximate
Sat 01:12:00 AM 48.0465 -29.8140 69° East  Level FlightAware Approximate
Sat 01:13:00 AM 48.0970 -29.6100 70° East  Level FlightAware Approximate
Sat 01:13:00 AM 48.0000 -30.0000 69° East 503 579 32,000  Level ETMS Enhanced Traffic Management System
Sat 01:14:00 AM 48.1472 -29.4056 70° East  Level FlightAware Approximate
Sat 01:15:00 AM 48.1965 -29.2032 70° East  Level FlightAware Approximate
Sat 01:16:00 AM 48.2453 -29.0004 70° East  Level FlightAware Approximate
Sat 01:17:00 AM 48.2939 -28.7972 70° East  Level FlightAware Approximate
Sat 01:18:00 AM 48.3420 -28.5937 70° East  Level FlightAware Approximate
Sat 01:19:00 AM 48.3846 -28.4240 70° East 503 579 32,000  Level FlightAware Transoceanic
Sat 01:20:00 AM 48.4311 -28.2253 71° East 503 579 32,000  Level FlightAware Transoceanic
Sat 01:21:00 AM 48.4773 -28.0263 71° East 503 579 32,000  Level FlightAware Transoceanic
Sat 01:22:00 AM 48.5232 -27.8269 71° East 503 579 32,000  Level FlightAware Transoceanic
Sat 01:23:00 AM 48.5687 -27.6272 71° East 503 579 32,000  Level FlightAware Transoceanic
Sat 01:24:00 AM 48.6139 -27.4271 71° East 503 579 32,000  Level FlightAware Transoceanic
Sat 01:25:00 AM 48.6587 -27.2266 71° East 503 579 32,000  Level FlightAware Transoceanic
Sat 01:26:00 AM 48.7032 -27.0258 72° East 503 579 32,000  Level FlightAware Transoceanic
Sat 01:27:00 AM 48.7473 -26.8246 72° East 503 579 32,000  Level FlightAware Transoceanic
Sat 01:28:00 AM 48.7911 -26.6231 72° East 503 579 32,000  Level FlightAware Transoceanic
Sat 01:29:00 AM 48.8345 -26.4212 72° East 503 579 32,000  Level FlightAware Transoceanic
Sat 01:30:00 AM 48.8776 -26.2190 72° East 503 579 32,000  Level FlightAware Transoceanic
Sat 01:31:00 AM 48.9203 -26.0165 72° East 503 579 32,000  Level FlightAware Transoceanic
Sat 01:32:00 AM 48.9626 -25.8135 72° East 503 579 32,000  Level FlightAware Transoceanic
Sat 01:33:00 AM 49.0046 -25.6103 73° East 503 579 32,000  Level FlightAware Transoceanic
Sat 01:34:00 AM 49.0463 -25.4067 73° East 503 579 32,000  Level FlightAware Transoceanic
Sat 01:35:00 AM 49.0876 -25.2027 73° East 503 579 32,000  Level FlightAware Transoceanic
Sat 01:36:00 AM 49.1285 -24.9985 73° East 503 579 32,000  Level FlightAware Transoceanic
Sat 01:37:00 AM 49.1691 -24.7939 73° East 503 579 32,000  Level FlightAware Transoceanic
Sat 01:38:00 AM 49.2093 -24.5889 73° East 503 579 32,000  Level FlightAware Transoceanic
Sat 01:39:00 AM 49.2491 -24.3836 74° East 503 579 32,000  Level FlightAware Transoceanic
Sat 01:40:00 AM 49.2886 -24.1780 74° East 503 579 32,000  Level FlightAware Transoceanic
Sat 01:41:00 AM 49.3277 -23.9721 74° East 503 579 32,000  Level FlightAware Transoceanic
Sat 01:42:00 AM 49.3665 -23.7658 74° East 503 579 32,000  Level FlightAware Transoceanic
Sat 01:43:00 AM 49.4048 -23.5593 74° East 503 579 32,000  Level FlightAware Transoceanic
Sat 01:44:00 AM 49.4428 -23.3524 74° East 503 579 32,000  Level FlightAware Transoceanic
Sat 01:45:00 AM 49.4805 -23.1451 74° East 503 579 32,000  Level FlightAware Transoceanic
Sat 01:46:00 AM 49.5177 -22.9376 75° East 503 579 32,000  Level FlightAware Transoceanic
Sat 01:47:00 AM 49.5546 -22.7297 75° East 503 579 32,000  Level FlightAware Transoceanic
Sat 01:48:00 AM 49.5912 -22.5216 75° East 503 579 32,000  Level FlightAware Transoceanic
Sat 01:49:00 AM 49.6273 -22.3131 75° East 503 579 32,000  Level FlightAware Transoceanic
Sat 01:50:00 AM 49.6631 -22.1043 75° East 503 579 32,000  Level FlightAware Transoceanic
Sat 01:51:00 AM 49.6985 -21.8952 75° East 503 579 32,000  Level FlightAware Transoceanic
Sat 01:52:00 AM 49.7335 -21.6858 76° East 503 579 32,000  Level FlightAware Transoceanic
Sat 01:53:00 AM 49.7682 -21.4761 76° East 503 579 32,000  Level FlightAware Transoceanic
Sat 01:54:00 AM 49.8024 -21.2661 76° East 503 579 32,000  Level FlightAware Transoceanic
Sat 01:55:00 AM 49.8363 -21.0558 76° East 503 579 32,000  Level FlightAware Transoceanic
Sat 01:56:00 AM 49.8698 -20.8452 76° East 503 579 32,000  Level FlightAware Transoceanic
Sat 01:57:00 AM 49.9029 -20.6343 76° East 503 579 32,000  Level FlightAware Transoceanic
Sat 01:58:00 AM 49.9357 -20.4232 77° East 503 579 32,000  Level FlightAware Transoceanic
Sat 01:59:00 AM 49.9680 -20.2117 77° East 503 579 32,000 35 Level FlightAware Transoceanic
Sat 02:00:00 AM 50.0009 -19.9942 77° East  Level FlightAware Approximate
Sat 02:01:00 AM 49.9996 -19.9881 93° East  Level FlightAware Approximate
Sat 02:02:00 AM 49.9911 -19.7650 93° East  Level FlightAware Approximate
Sat 02:03:00 AM 49.9822 -19.5420 93° East  Level FlightAware Approximate
Sat 02:04:00 AM 49.9729 -19.3190 94° East  Level FlightAware Approximate
Sat 02:05:00 AM 49.9632 -19.0961 94° East  Level FlightAware Approximate
Sat 02:06:00 AM 49.9530 -18.8734 94° East  Level FlightAware Approximate
Sat 02:07:00 AM 49.9424 -18.6507 94° East  Level FlightAware Approximate
Sat 02:08:00 AM 49.9317 -18.4285 94° East  Level FlightAware Approximate
Sat 02:09:00 AM 49.9222 -18.2062 94° East  Level FlightAware Approximate
Sat 02:10:00 AM 49.9122 -17.9840 94° East  Level FlightAware Approximate
Sat 02:11:00 AM 49.9018 -17.7619 94° East  Level FlightAware Approximate
Sat 02:12:00 AM 49.8909 -17.5399 94° East  Level FlightAware Approximate
Sat 02:13:00 AM 49.8797 -17.3179 94° East  Level FlightAware Approximate
Sat 02:14:00 AM 49.8680 -17.0961 95° East  Level FlightAware Approximate
Sat 02:15:00 AM 49.8559 -16.8744 95° East  Level FlightAware Approximate
Sat 02:16:00 AM 49.8433 -16.6528 95° East  Level FlightAware Approximate
Sat 02:17:00 AM 49.8304 -16.4314 95° East  Level FlightAware Approximate
Sat 02:18:00 AM 49.8170 -16.2100 95° East  Level FlightAware Approximate
Sat 02:19:00 AM 49.8032 -15.9888 95° East  Level FlightAware Approximate
Sat 02:20:00 AM 49.7890 -15.7677 96° East  Level FlightAware Approximate
Sat 02:21:00 AM 49.7743 -15.5467 96° East  Level FlightAware Approximate
Sat 02:22:00 AM 49.7586 -15.3260 97° East  Level FlightAware Approximate
Sat 02:23:00 AM 49.7416 -15.1056 97° East  Level FlightAware Approximate
Sat 02:24:00 AM 49.7248 -14.8853 96° East  Level FlightAware Approximate
Sat 02:25:00 AM 49.7082 -14.6649 97° East  Level FlightAware Approximate
Sat 02:26:00 AM 49.6912 -14.4447 97° East  Level FlightAware Approximate
Sat 02:27:00 AM 49.6738 -14.2247 97° East  Level FlightAware Approximate
Sat 02:28:00 AM 49.6559 -14.0048 97° East  Level FlightAware Approximate
Sat 02:29:00 AM 49.6371 -13.7852 98° East  Level FlightAware Approximate
Sat 02:30:00 AM 49.6176 -13.5659 98° East  Level FlightAware Approximate
Sat 02:31:00 AM 49.5977 -13.3467 98° East  Level FlightAware Approximate
Sat 02:32:00 AM 49.5774 -13.1277 98° East  Level FlightAware Approximate
Sat 02:33:00 AM 49.5567 -12.9088 98° East  Level FlightAware Approximate
Sat 02:34:00 AM 49.5355 -12.6902 98° East  Level FlightAware Approximate
Sat 02:35:00 AM 49.5140 -12.4718 99° East  Level FlightAware Approximate
Sat 02:36:00 AM 49.4920 -12.2535 99° East  Level FlightAware Approximate
Sat 02:37:00 AM 49.4697 -12.0354 99° East  Level FlightAware Approximate
Sat 02:38:00 AM 49.4469 -11.8176 99° East  Level FlightAware Approximate
Sat 02:39:00 AM 49.4237 -11.5999 99° East  Level FlightAware Approximate
Sat 02:40:00 AM 49.4001 -11.3825 99° East  Level FlightAware Approximate
Sat 02:41:00 AM 49.3761 -11.1653 100° East  Level FlightAware Approximate
Sat 02:42:00 AM 49.3517 -10.9483 100° East  Level FlightAware Approximate
Sat 02:43:00 AM 49.3284 -10.7311 99° East  Level FlightAware Approximate
Sat 02:44:00 AM 49.3048 -10.5140 99° East  Level FlightAware Approximate
Sat 02:45:00 AM 49.2808 -10.2972 100° East  Level FlightAware Approximate
Sat 02:46:00 AM 49.2564 -10.0806 100° East  Level FlightAware Approximate
Sat 02:47:00 AM 49.2316 -9.8642 100° East  Level FlightAware Approximate
Sat 02:48:00 AM 49.2064 -9.6481 100° East  Level FlightAware Approximate
Sat 02:49:00 AM 49.1808 -9.4321 100° East  Level FlightAware Approximate
Sat 02:50:00 AM 49.1548 -9.2164 100° East  Level FlightAware Approximate
Sat 02:51:00 AM 49.1283 -9.0009 101° East  Level FlightAware Approximate
Sat 02:52:00 AM 49.1015 -8.7857 101° East  Level FlightAware Approximate
Sat 02:53:00 AM 49.0743 -8.5706 101° East  Level FlightAware Approximate
Sat 02:54:00 AM 49.0467 -8.3558 101° East  Level FlightAware Approximate
Sat 02:55:00 AM 49.0187 -8.1413 101° East  Level FlightAware Approximate
Sat 02:55:38 AM 49.2431 -8.9961 101° East 498 573 34,000  Level FlightAware UK
Sat 02:55:50 AM 49.2430 -8.9490 101° East 488 562 34,100 122 Climbing FlightAware ADS-B
Sat 02:56:27 AM 49.2220 -8.8260 105° East 488 562 34,100  Level FlightAware ADS-B
Sat 02:57:05 AM 49.2000 -8.6950 104° East 487 560 34,100 -85 Level FlightAware ADS-B
Sat 02:57:38 AM 49.1757 -8.5957 104° East 498 573 34,000  Descending FlightAware UK
Sat 02:57:41 AM 49.1800 -8.5790 104° East 485 558 34,100 176 Climbing FlightAware ADS-B
Sat 02:58:12 AM 49.1630 -8.4780 104° East 485 558 34,100  Level FlightAware ADS-B
Sat 02:58:47 AM 49.1420 -8.3590 105° East 484 557 34,100  Level FlightAware ADS-B
Sat 02:59:24 AM 49.1220 -8.2450 105° East 483 556 34,100  Level FlightAware ADS-B
Sat 02:59:55 AM 49.1040 -8.1410 105° East 481 554 34,100  Level FlightAware ADS-B
Sat 03:00:33 AM 49.0830 -8.0160 104° East 477 549 34,100 -82 Level FlightAware ADS-B
Sat 03:01:08 AM 49.0547 -7.9047 104° East 490 564 34,000  Descending FlightAware UK
Sat 03:01:10 AM 49.0610 -7.8950 104° East 477 549 34,100 182 Climbing FlightAware ADS-B
Sat 03:01:41 AM 49.0440 -7.7980 105° East 479 551 34,100  Level FlightAware ADS-B
Sat 03:02:18 AM 49.0220 -7.6740 105° East 479 551 34,100  Level FlightAware ADS-B
Sat 03:02:54 AM 49.0000 -7.5570 106° East 481 554 34,100  Level FlightAware ADS-B
Sat 03:03:27 AM 48.9800 -7.4440 105° East 483 556 34,100  Level FlightAware ADS-B
Sat 03:04:04 AM 48.9580 -7.3260 106° East 485 558 34,100 -85 Level FlightAware ADS-B
Sat 03:04:38 AM 48.9334 -7.2245 106° East 488 562 34,000  Descending FlightAware UK
Sat 03:04:39 AM 48.9370 -7.2100 106° East 487 560 34,100 158 Climbing FlightAware ADS-B
Sat 03:05:16 AM 48.9140 -7.0870 106° East 488 562 34,100  Level FlightAware ADS-B
Sat 03:05:48 AM 48.8940 -6.9820 106° East 487 560 34,100  Level FlightAware ADS-B
Sat 03:06:26 AM 48.8710 -6.8590 106° East 489 563 34,100  Level FlightAware ADS-B
Sat 03:06:57 AM 48.8510 -6.7530 106° East 487 560 34,100  Level FlightAware ADS-B
Sat 03:07:34 AM 48.8280 -6.6320 106° East 487 560 34,100  Level FlightAware ADS-B
Sat 03:08:08 AM 48.8070 -6.5210 106° East 484 557 34,100  Level FlightAware ADS-B
Sat 03:08:43 AM 48.7850 -6.4080 106° East 482 555 34,100  Level FlightAware ADS-B
Sat 03:09:18 AM 48.7640 -6.2970 106° East 476 548 34,100  Level FlightAware ADS-B
Sat 03:09:52 AM 48.7420 -6.1860 107° East 475 547 34,100  Level FlightAware ADS-B
Sat 03:10:27 AM 48.7210 -6.0810 107° East 473 544 34,100 -85 Level FlightAware ADS-B
Sat 03:11:03 AM 48.6955 -5.9771 107° East 496 571 34,000  Descending FlightAware UK
Sat 03:11:04 AM 48.6980 -5.9610 107° East 472 543 34,100 158 Climbing FlightAware ADS-B
Sat 03:11:41 AM 48.6750 -5.8450 107° East 470 541 34,100  Level FlightAware ADS-B
Sat 03:12:11 AM 48.6570 -5.7560 107° East 468 539 34,100  Level FlightAware ADS-B
Sat 03:12:46 AM 48.6330 -5.6410 107° East 468 539 34,100  Level FlightAware ADS-B
Sat 03:13:21 AM 48.6120 -5.5320 106° East 468 539 34,100  Level FlightAware ADS-B
Sat 03:13:56 AM 48.5890 -5.4210 107° East 469 540 34,100  Level FlightAware ADS-B
Sat 03:14:31 AM 48.5670 -5.3130 107° East 469 540 34,100 -162 Level FlightAware ADS-B
Sat 03:14:33 AM 48.5640 -5.3192 107° East 494 568 34,000 -188 Descending FlightAware UK
Sat 03:15:03 AM 48.5448 -5.2254 107° East 494 568 34,000 167 Level FlightAware UK
Sat 03:15:09 AM 48.5410 -5.1880 107° East 470 541 34,100 150 Climbing FlightAware ADS-B
Sat 03:15:43 AM 48.5210 -5.0880 107° East 473 544 34,100  Level FlightAware ADS-B
Sat 03:16:19 AM 48.4950 -4.9670 108° East 479 551 34,100 411 Level FlightAware ADS-B
Sat 03:16:56 AM 48.4710 -4.8500 107° East 484 557 34,600 971 Climbing FlightAware ADS-B
Sat 03:17:27 AM 48.4510 -4.7550 108° East 480 552 35,200 1,324 Climbing FlightAware ADS-B
Sat 03:18:04 AM 48.4250 -4.6320 108° East 476 548 36,100 740 Climbing FlightAware ADS-B
Sat 03:18:40 AM 48.4020 -4.5190 107° East 477 549 36,100  Level FlightAware ADS-B
Sat 03:19:15 AM 48.3780 -4.4060 108° East 477 549 36,100  Level FlightAware ADS-B
Sat 03:19:47 AM 48.3560 -4.3060 108° East 478 550 36,100  Level FlightAware ADS-B
Sat 03:20:24 AM 48.3310 -4.1900 108° East 482 555 36,100  Level FlightAware ADS-B
Sat 03:20:59 AM 48.3050 -4.0770 109° East 488 562 36,100  Level FlightAware ADS-B
Sat 03:21:01 AM 48.3833 -4.4327 288° West 477 549 36,100  Level FlightAware ADS-B (EGJJ / JER)
Sat 03:21:14 AM 48.2898 -4.0354 109° East 499 574 36,100  Level FlightAware ADS-B (LFBU / ANG)
Sat 03:21:55 AM 48.2320 -3.9290 129° Southeast 499 574 36,100  Level FlightAware ADS-B
Sat 03:22:32 AM 48.1740 -3.8330 132° Southeast 500 575 36,100  Level FlightAware ADS-B
Sat 03:23:07 AM 48.1200 -3.7460 133° Southeast 503 579 36,100  Level FlightAware ADS-B
Sat 03:23:42 AM 48.0617 -3.6522 133° Southeast 504 580 36,100  Level FlightAware ADS-B (LFBU / ANG)
Sat 03:24:21 AM 48.0000 -3.5520 133° Southeast 505 581 36,100  Level FlightAware ADS-B
Sat 03:24:51 AM 47.9540 -3.4780 133° Southeast 507 583 36,100  Level FlightAware ADS-B
Sat 03:25:34 AM 47.8860 -3.3680 133° Southeast 510 587 36,100  Level FlightAware ADS-B
Sat 03:26:04 AM 47.8370 -3.2890 133° Southeast 514 592 36,100  Level FlightAware ADS-B
Sat 03:26:41 AM 47.7770 -3.1930 133° Southeast 518 596 36,100  Level FlightAware ADS-B
Sat 03:27:16 AM 47.7270 -3.0940 127° Southeast 520 598 36,100  Level FlightAware ADS-B
Sat 03:27:49 AM 47.6840 -2.9910 122° Southeast 520 598 36,100  Level FlightAware ADS-B
Sat 03:28:26 AM 47.6420 -2.8770 119° Southeast 520 598 36,100  Level FlightAware ADS-B
Sat 03:28:54 AM 47.6145 -2.8013 118° Southeast 522 601 36,100  Level FlightAware ADS-B (LFBU / ANG)
Sat 03:29:29 AM 47.5698 -2.6800 119° Southeast 522 601 36,100  Level FlightAware ADS-B (LFBU / ANG)
Sat 03:30:08 AM 47.5270 -2.5640 119° Southeast 521 600 36,100  Level FlightAware ADS-B
Sat 03:30:12 AM 47.5190 -2.5423 119° Southeast 523 602 36,100  Level FlightAware ADS-B (LFBU / ANG)
Sat 03:30:43 AM 47.4827 -2.4450 119° Southeast 525 604 36,100  Level FlightAware ADS-B (LFBU / ANG)
Sat 03:31:21 AM 47.4378 -2.3247 119° Southeast 526 605 36,100  Level FlightAware ADS-B (LFBU / ANG)
Sat 03:31:53 AM 47.4153 -2.2645 119° Southeast 528 608 36,100 87 Level FlightAware ADS-B (LFBU / ANG)
Sat 03:32:30 AM 47.3580 -2.1130 119° Southeast 531 611 36,200 324 Climbing FlightAware ADS-B
Sat 03:33:07 AM 47.3150 -1.9990 119° Southeast 537 618 36,500 583 Climbing FlightAware ADS-B
Sat 03:33:42 AM 47.2720 -1.8850 119° Southeast 538 619 36,900 507 Climbing FlightAware ADS-B
Sat 03:34:18 AM 47.2280 -1.7680 119° Southeast 538 619 37,100 176 Climbing FlightAware ADS-B
Sat 03:34:50 AM 47.1870 -1.6610 119° Southeast 536 617 37,100  Level FlightAware ADS-B
Sat 03:35:26 AM 47.1430 -1.5470 120° Southeast 533 613 37,100  Level FlightAware ADS-B
Sat 03:36:04 AM 47.0980 -1.4290 119° Southeast 529 609 37,100  Level FlightAware ADS-B
Sat 03:36:14 AM 47.0892 -1.4058 119° Southeast 529 609 37,100  Level FlightAware ADS-B (LFBU / ANG)
Sat 03:37:06 AM 47.0283 -1.2479 119° Southeast 525 604 37,100  Level FlightAware ADS-B (LFBU / ANG)
Sat 03:37:45 AM 46.9774 -1.1162 119° Southeast 524 603 37,100  Level FlightAware ADS-B (LFBU / ANG)
Sat 03:38:22 AM 46.9329 -1.0019 120° Southeast 526 605 37,100  Level FlightAware ADS-B (LFBU / ANG)
Sat 03:38:56 AM 46.8920 -0.8980 120° Southeast 528 608 37,100  Level FlightAware ADS-B
Sat 03:39:15 AM 46.8694 -0.8391 119° Southeast 530 610 37,100  Level FlightAware ADS-B (LFBU / ANG)
Sat 03:40:08 AM 46.8040 -0.6720 120° Southeast 534 615 37,100  Level FlightAware ADS-B
Sat 03:40:28 AM 46.7857 -0.6251 120° Southeast 534 615 37,100  Level FlightAware ADS-B (LFBU / ANG)
Sat 03:41:17 AM 46.7206 -0.4596 120° Southeast 534 615 37,100  Level FlightAware ADS-B (LFBU / ANG)
Sat 03:41:51 AM 46.6790 -0.3480 118° Southeast 527 606 37,100  Level FlightAware ADS-B
Sat 03:42:22 AM 46.6605 -0.2497 105° East 521 600 37,100  Level FlightAware ADS-B (LFBU / ANG)
Sat 03:43:03 AM 46.6340 -0.1090 105° East 519 597 37,100  Level FlightAware ADS-B
Sat 03:43:37 AM 46.6110 0.0042 106° East 520 598 37,100  Level FlightAware ADS-B (LFBU / ANG)
Sat 03:44:11 AM 46.5860 0.1170 108° East 519 597 37,100  Level FlightAware ADS-B
Sat 03:44:47 AM 46.5590 0.2400 108° East 522 601 37,100  Level FlightAware ADS-B
Sat 03:45:19 AM 46.5383 0.3281 109° East 523 602 37,100  Level FlightAware ADS-B (LFBU / ANG)
Sat 03:45:59 AM 46.5070 0.4790 107° East 523 602 37,100  Level FlightAware ADS-B
Sat 03:46:30 AM 46.4886 0.5727 106° East 524 603 37,100  Level FlightAware ADS-B (LFBU / ANG)
Sat 03:47:02 AM 46.4650 0.6910 106° East 524 603 37,100  Level FlightAware ADS-B
Sat 03:47:22 AM 46.4512 0.7570 107° East 526 605 37,100  Level FlightAware ADS-B (LFBU / ANG)
Sat 03:47:52 AM 46.4308 0.8569 106° East 526 605 37,100  Level FlightAware ADS-B (LFBU / ANG)
Sat 03:48:40 AM 46.3961 1.0237 107° East 528 608 37,100  Level FlightAware ADS-B (LFBU / ANG)
Sat 03:49:18 AM 46.3690 1.1530 107° East 529 609 37,100  Level FlightAware ADS-B
Sat 03:49:26 AM 46.3633 1.1807 107° East 530 610 37,100  Level FlightAware ADS-B (LFBU / ANG)
Sat 03:50:07 AM 46.3357 1.3120 107° East 531 611 37,100  Level FlightAware ADS-B (LFBU / ANG)
Sat 03:50:42 AM 46.3097 1.4352 107° East 531 611 37,100  Level FlightAware ADS-B (LFBU / ANG)
Sat 03:51:43 AM 46.2686 1.6273 107° East 530 610 37,100  Level FlightAware ADS-B (LFBU / ANG)
Sat 03:52:18 AM 46.2410 1.7550 107° East 529 609 37,100  Level FlightAware ADS-B
Sat 03:52:33 AM 46.2293 1.8098 107° East 528 608 37,100  Level FlightAware ADS-B (LFBU / ANG)
Sat 03:53:31 AM 46.1880 2.0010 107° East 525 604 37,100  Level FlightAware ADS-B
Sat 03:54:09 AM 46.1610 2.1230 108° East 524 603 37,100  Level FlightAware ADS-B
Sat 03:54:13 AM 46.2097 1.8999 288° West 524 603 37,100  Level FlightAware ADS-B (LFBU / ANG)
Sat 03:54:44 AM 46.1332 2.2481 107° East 524 603 37,100  Level FlightAware ADS-B (LFBU / ANG)
Sat 03:55:23 AM 46.1030 2.3700 110° East 521 600 37,100  Level FlightAware ADS-B
Sat 03:55:35 AM 46.0863 2.4093 122° Southeast 519 597 37,100  Level FlightAware ADS-B (LFBU / ANG)
Sat 03:56:13 AM 46.0324 2.5184 125° Southeast 521 600 37,100  Level FlightAware ADS-B (LFBU / ANG)
Sat 03:56:51 AM 45.9847 2.6194 124° Southeast 521 600 37,100  Level FlightAware ADS-B (LFBU / ANG)
Sat 03:57:38 AM 45.9200 2.7600 123° Southeast 520 598 37,100  Level FlightAware ADS-B
Sat 03:58:07 AM 45.9586 2.6771 304° West 521 600 37,100  Level FlightAware ADS-B (LFBU / ANG)
Sat 03:58:54 AM 45.8140 2.9740 125° Southeast 525 604 37,100  Level FlightAware ADS-B
Sat 03:59:30 AM 45.7639 3.0739 126° Southeast 528 608 37,100  Level FlightAware ADS-B (LFBU / ANG)
Sat 04:00:01 AM 45.7220 3.1580 125° Southeast 530 610 37,100  Level FlightAware ADS-B (LFBU / ANG)
Sat 04:00:37 AM 45.6720 3.2590 125° Southeast 532 612 37,100  Level FlightAware ADS-B
Sat 04:01:10 AM 45.6190 3.3650 126° Southeast 534 615 37,100  Level FlightAware ADS-B
Sat 04:01:22 AM 45.6021 3.3973 127° Southeast 535 616 37,100  Level FlightAware ADS-B (LFBU / ANG)
Sat 04:02:04 AM 45.5404 3.5173 126° Southeast 537 618 37,100  Level FlightAware ADS-B (LFBU / ANG)
Sat 04:02:58 AM 45.4600 3.6710 127° Southeast 542 624 37,100  Level FlightAware ADS-B
Sat 04:03:34 AM 45.4070 3.7730 126° Southeast 546 628 37,100  Level FlightAware ADS-B
Sat 04:04:12 AM 45.3490 3.8850 126° Southeast 549 632 37,100  Level FlightAware ADS-B
Sat 04:04:46 AM 45.3000 3.9790 127° Southeast 551 634 37,100  Level FlightAware ADS-B
Sat 04:05:19 AM 45.2510 4.0740 126° Southeast 552 635 37,100  Level FlightAware ADS-B
Sat 04:05:56 AM 45.1910 4.1840 128° Southeast 550 633 37,100  Level FlightAware ADS-B
Sat 04:06:32 AM 45.1360 4.2840 128° Southeast 547 629 37,100  Level FlightAware ADS-B
Sat 04:07:08 AM 45.0800 4.3860 128° Southeast 545 627 37,100  Level FlightAware ADS-B
Sat 04:07:40 AM 45.0300 4.4790 127° Southeast 540 621 37,100  Level FlightAware ADS-B
Sat 04:08:16 AM 44.9770 4.5760 128° Southeast 537 618 37,100  Level FlightAware ADS-B
Sat 04:08:52 AM 44.9210 4.6800 127° Southeast 535 616 37,100  Level FlightAware ADS-B
Sat 04:09:24 AM 44.8720 4.7690 128° Southeast 534 615 37,100  Level FlightAware ADS-B
Sat 04:10:02 AM 44.8140 4.8750 128° Southeast 534 615 37,100  Level FlightAware ADS-B
Sat 04:10:38 AM 44.7620 4.9700 128° Southeast 533 613 37,100  Level FlightAware ADS-B
Sat 04:11:04 AM 44.7240 5.0440 126° Southeast 538 619 37,100  Level FlightAware ADS-B
Sat 04:12:00 AM 44.6550 5.2150 120° Southeast 540 621 37,100  Level FlightAware ADS-B
Sat 04:12:36 AM 44.6100 5.3240 120° Southeast 539 620 37,100  Level FlightAware ADS-B
Sat 04:13:09 AM 44.5690 5.4270 119° Southeast 538 619 37,100  Level FlightAware ADS-B
Sat 04:13:44 AM 44.5270 5.5320 119° Southeast 537 618 37,100  Level FlightAware ADS-B
Sat 04:14:21 AM 44.4820 5.6460 119° Southeast 538 619 37,100  Level FlightAware ADS-B
Sat 04:14:56 AM 44.4400 5.7510 119° Southeast 539 620 37,100  Level FlightAware ADS-B
Sat 04:15:26 AM 44.4030 5.8460 119° Southeast 539 620 37,100  Level FlightAware ADS-B
Sat 04:16:05 AM 44.3580 5.9610 119° Southeast 541 623 37,100  Level FlightAware ADS-B
Sat 04:16:40 AM 44.3160 6.0670 119° Southeast 542 624 37,100  Level FlightAware ADS-B
Sat 04:17:14 AM 44.2750 6.1700 119° Southeast 544 626 37,100  Level FlightAware ADS-B
Sat 04:17:51 AM 44.2320 6.2800 119° Southeast 545 627 37,100  Level FlightAware ADS-B
Sat 04:18:26 AM 44.1890 6.3920 118° Southeast 544 626 37,100  Level FlightAware ADS-B
Sat 04:18:58 AM 44.1500 6.4950 118° Southeast 544 626 37,100  Level FlightAware ADS-B
Sat 04:19:36 AM 44.1060 6.6100 118° Southeast 543 625 37,100  Level FlightAware ADS-B
Sat 04:20:05 AM 44.0720 6.7010 117° Southeast 544 626 37,100  Level FlightAware ADS-B
Sat 04:20:44 AM 44.0290 6.8150 118° Southeast 544 626 37,100  Level FlightAware ADS-B
Sat 04:21:19 AM 43.9860 6.9290 118° Southeast 546 628 37,100  Level FlightAware ADS-B
Sat 04:21:53 AM 43.9470 7.0370 117° Southeast 548 631 37,100  Level FlightAware ADS-B
Sat 04:22:30 AM 43.9040 7.1570 116° Southeast 549 632 37,100  Level FlightAware ADS-B
Sat 04:23:05 AM 43.8640 7.2630 118° Southeast 540 621 37,100  Level FlightAware ADS-B
Sat 04:23:42 AM 43.8040 7.3620 130° Southeast 530 610 37,100  Level FlightAware ADS-B
Sat 04:24:14 AM 43.7540 7.4480 129° Southeast 532 612 37,100  Level FlightAware ADS-B
Sat 04:24:51 AM 43.6980 7.5440 129° Southeast 531 611 37,100  Level FlightAware ADS-B
Sat 04:25:27 AM 43.6450 7.6360 129° Southeast 528 608 37,100  Level FlightAware ADS-B
Sat 04:25:58 AM 43.5950 7.7220 129° Southeast 526 605 37,100  Level FlightAware ADS-B
Sat 04:26:33 AM 43.5420 7.8140 128° Southeast 522 601 37,100  Level FlightAware ADS-B
Sat 04:27:10 AM 43.4880 7.9090 128° Southeast 519 597 37,100  Level FlightAware ADS-B
Sat 04:27:45 AM 43.4360 8.0010 128° Southeast 517 595 37,100  Level FlightAware ADS-B
Sat 04:28:20 AM 43.3860 8.0870 129° Southeast 518 596 37,100  Level FlightAware ADS-B
Sat 04:28:56 AM 43.3310 8.1840 128° Southeast 517 595 37,100  Level FlightAware ADS-B
Sat 04:29:31 AM 43.2790 8.2760 128° Southeast 518 596 37,100  Level FlightAware ADS-B
Sat 04:30:05 AM 43.2290 8.3630 128° Southeast 518 596 37,100  Level FlightAware ADS-B
Sat 04:30:40 AM 43.1770 8.4540 128° Southeast 515 593 37,100  Level FlightAware ADS-B
Sat 04:31:17 AM 43.1230 8.5480 128° Southeast 513 590 37,100  Level FlightAware ADS-B
Sat 04:31:50 AM 43.0810 8.6220 128° Southeast 511 588 37,100  Level FlightAware ADS-B
Sat 04:32:28 AM 43.0220 8.7250 128° Southeast 509 586 37,100  Level FlightAware ADS-B
Sat 04:33:00 AM 42.9740 8.8070 129° Southeast 508 585 37,100  Level FlightAware ADS-B
Sat 04:33:36 AM 42.9220 8.8970 128° Southeast 505 581 37,100  Level FlightAware ADS-B
Sat 04:34:12 AM 42.8700 8.9850 129° Southeast 506 582 37,100  Level FlightAware ADS-B
Sat 04:34:48 AM 42.8160 9.0750 129° Southeast 507 583 37,100  Level FlightAware ADS-B
Sat 04:35:20 AM 42.7690 9.1540 129° Southeast 508 585 37,100  Level FlightAware ADS-B
Sat 04:35:56 AM 42.7150 9.2470 128° Southeast 509 586 37,100  Level FlightAware ADS-B
Sat 04:36:32 AM 42.6630 9.3380 128° Southeast 517 595 37,100  Level FlightAware ADS-B
Sat 04:37:06 AM 42.6260 9.4380 117° Southeast 528 608 37,100  Level FlightAware ADS-B
Sat 04:37:41 AM 42.5930 9.5460 113° Southeast 530 610 37,100  Level FlightAware ADS-B
Sat 04:38:16 AM 42.5640 9.6520 110° East 530 610 37,100  Level FlightAware ADS-B
Sat 04:38:50 AM 42.5330 9.7600 111° Southeast 529 609 37,100  Level FlightAware ADS-B
Sat 04:39:22 AM 42.5060 9.8540 111° Southeast 527 606 37,100  Level FlightAware ADS-B
Sat 04:40:00 AM 42.4710 9.9740 112° Southeast 527 606 37,100  Level FlightAware ADS-B
Sat 04:40:36 AM 42.4380 10.0860 112° Southeast 528 608 37,100  Level FlightAware ADS-B
Sat 04:41:12 AM 42.4050 10.1970 112° Southeast 528 608 37,100  Level FlightAware ADS-B
Sat 04:41:46 AM 42.3750 10.3000 111° Southeast 527 606 37,100  Level FlightAware ADS-B
Sat 04:42:22 AM 42.3420 10.4100 112° Southeast 525 604 37,100  Level FlightAware ADS-B
Sat 04:42:57 AM 42.3110 10.5160 112° Southeast 525 604 37,100  Level FlightAware ADS-B
Sat 04:43:28 AM 42.2830 10.6110 112° Southeast 524 603 37,100  Level FlightAware ADS-B
Sat 04:44:07 AM 42.2480 10.7290 112° Southeast 522 601 37,100  Level FlightAware ADS-B
Sat 04:44:42 AM 42.2160 10.8350 112° Southeast 521 600 37,100  Level FlightAware ADS-B
Sat 04:45:14 AM 42.1880 10.9290 112° Southeast 519 597 37,100  Level FlightAware ADS-B
Sat 04:45:50 AM 42.1550 11.0410 112° Southeast 520 598 37,100  Level FlightAware ADS-B
Sat 04:46:24 AM 42.1240 11.1420 112° Southeast 519 597 37,100  Level FlightAware ADS-B
Sat 04:46:59 AM 42.0930 11.2450 112° Southeast 517 595 37,100 333 Level FlightAware ADS-B
Sat 04:47:36 AM 42.0580 11.3570 113° Southeast 507 583 37,500 904 Climbing FlightAware ADS-B
Sat 04:48:12 AM 42.0120 11.4470 125° Southeast 487 560 38,200 1,147 Climbing FlightAware ADS-B
Sat 04:48:44 AM 41.9620 11.5180 133° Southeast 478 550 38,800 794 Climbing FlightAware ADS-B
Sat 04:49:20 AM 41.9080 11.5940 134° Southeast 476 548 39,100 250 Climbing FlightAware ADS-B
Sat 04:49:56 AM 41.8530 11.6720 133° Southeast 475 547 39,100  Level FlightAware ADS-B
Sat 04:50:30 AM 41.8010 11.7450 134° Southeast 474 545 39,100  Level FlightAware ADS-B
Sat 04:51:06 AM 41.7480 11.8200 133° Southeast 473 544 39,100  Level FlightAware ADS-B
Sat 04:51:42 AM 41.6930 11.8970 134° Southeast 474 545 39,100  Level FlightAware ADS-B
Sat 04:52:18 AM 41.6380 11.9730 134° Southeast 476 548 39,100  Level FlightAware ADS-B
Sat 04:52:50 AM 41.5890 12.0420 134° Southeast 477 549 39,100  Level FlightAware ADS-B
Sat 04:53:26 AM 41.5350 12.1180 133° Southeast 478 550 39,100  Level FlightAware ADS-B
Sat 04:54:01 AM 41.4830 12.1910 134° Southeast 476 548 39,100  Level FlightAware ADS-B
Sat 04:54:38 AM 41.4240 12.2710 135° Southeast 475 547 39,100  Level FlightAware ADS-B
Sat 04:55:09 AM 41.3780 12.3340 134° Southeast 474 545 39,100  Level FlightAware ADS-B
Sat 04:55:46 AM 41.3230 12.4090 134° Southeast 475 547 39,100  Level FlightAware ADS-B
Sat 04:56:22 AM 41.2640 12.4890 134° Southeast 475 547 39,100  Level FlightAware ADS-B
Sat 04:56:54 AM 41.2160 12.5560 134° Southeast 476 548 39,100  Level FlightAware ADS-B
Sat 04:57:31 AM 41.1620 12.6330 133° Southeast 476 548 39,100  Level FlightAware ADS-B
Sat 04:58:07 AM 41.1080 12.7090 133° Southeast 477 549 39,100  Level FlightAware ADS-B
Sat 04:58:42 AM 41.0540 12.7860 133° Southeast 478 550 39,100  Level FlightAware ADS-B
Sat 04:59:14 AM 41.0070 12.8530 133° Southeast 479 551 39,100  Level FlightAware ADS-B
Sat 04:59:50 AM 40.9510 12.9320 133° Southeast 481 554 39,100  Level FlightAware ADS-B
Sat 05:00:28 AM 40.8950 13.0110 133° Southeast 482 555 39,100  Level FlightAware ADS-B
Sat 05:01:00 AM 40.8440 13.0810 134° Southeast 482 555 39,100  Level FlightAware ADS-B
Sat 05:01:36 AM 40.7910 13.1560 133° Southeast 484 557 39,100  Level FlightAware ADS-B
Sat 05:01:56 AM 40.7640 13.2080 124° Southeast 493 567 39,100  Level FlightAware ADS-B
Sat 05:02:30 AM 40.7290 13.3000 117° Southeast 496 571 39,100  Level FlightAware ADS-B
Sat 05:03:06 AM 40.6930 13.3980 116° Southeast 495 570 39,100  Level FlightAware ADS-B
Sat 05:03:42 AM 40.6560 13.4960 116° Southeast 495 570 39,100  Level FlightAware ADS-B
Sat 05:04:18 AM 40.6200 13.5960 115° Southeast 497 572 39,100  Level FlightAware ADS-B
Sat 05:04:50 AM 40.5880 13.6810 116° Southeast 495 570 39,100  Level FlightAware ADS-B
Sat 05:05:26 AM 40.5510 13.7780 117° Southeast 499 574 39,100  Level FlightAware ADS-B
Sat 05:06:02 AM 40.5140 13.8740 117° Southeast 497 572 39,100  Level FlightAware ADS-B
Sat 05:06:38 AM 40.4760 13.9730 117° Southeast 497 572 39,100  Level FlightAware ADS-B
Sat 05:07:08 AM 40.4440 14.0550 117° Southeast 499 574 39,100  Level FlightAware ADS-B
Sat 05:07:46 AM 40.4070 14.1500 117° Southeast 499 574 39,100  Level FlightAware ADS-B
Sat 05:08:23 AM 40.3670 14.2530 117° Southeast 500 575 39,100  Level FlightAware ADS-B
Sat 05:08:56 AM 40.3320 14.3440 117° Southeast 498 573 39,100  Level FlightAware ADS-B
Sat 05:09:32 AM 40.2940 14.4410 117° Southeast 497 572 39,100  Level FlightAware ADS-B
Sat 05:10:02 AM 40.2620 14.5220 117° Southeast 496 571 39,100  Level FlightAware ADS-B
Sat 05:10:41 AM 40.2210 14.6240 118° Southeast 495 570 39,100  Level FlightAware ADS-B
Sat 05:11:08 AM 40.1980 14.6820 117° Southeast 494 568 39,100  Level FlightAware ADS-B
Sat 05:11:56 AM 40.1440 14.8250 116° Southeast 494 568 39,100  Level FlightAware ADS-B
Sat 05:12:31 AM 40.1270 14.9250 103° East 495 570 39,100  Level FlightAware ADS-B
Sat 05:13:07 AM 40.1010 15.0290 108° East 497 572 39,100  Level FlightAware ADS-B
Sat 05:13:42 AM 40.0700 15.1240 113° Southeast 491 565 39,100  Level FlightAware ADS-B
Sat 05:14:17 AM 40.0360 15.2210 115° Southeast 495 570 39,100  Level FlightAware ADS-B
Sat 05:14:53 AM 40.0010 15.3150 116° Southeast 493 567 39,100  Level FlightAware ADS-B
Sat 05:15:27 AM 39.9670 15.4060 116° Southeast 490 564 39,100  Level FlightAware ADS-B
Sat 05:16:02 AM 39.9330 15.4990 115° Southeast 490 564 39,100  Level FlightAware ADS-B
Sat 05:16:37 AM 39.8980 15.5930 116° Southeast 490 564 39,100  Level FlightAware ADS-B
Sat 05:17:17 AM 39.8570 15.7010 116° Southeast 491 565 39,100  Level FlightAware ADS-B
Sat 05:17:52 AM 39.8210 15.7960 116° Southeast 491 565 39,100  Level FlightAware ADS-B
Sat 05:18:27 AM 39.7860 15.8880 116° Southeast 492 566 39,100  Level FlightAware ADS-B
Sat 05:19:07 AM 39.7460 15.9940 116° Southeast 492 566 39,100  Level FlightAware ADS-B
Sat 05:19:42 AM 39.7090 16.0900 117° Southeast 493 567 39,100  Level FlightAware ADS-B
Sat 05:20:17 AM 39.6750 16.1810 116° Southeast 495 570 39,100  Level FlightAware ADS-B
Sat 05:20:58 AM 39.6330 16.2900 117° Southeast 496 571 39,100  Level FlightAware ADS-B
Sat 05:21:31 AM 39.5970 16.3830 117° Southeast 500 575 39,100  Level FlightAware ADS-B
Sat 05:22:07 AM 39.5620 16.4750 116° Southeast 501 577 39,100  Level FlightAware ADS-B
Sat 05:22:43 AM 39.5250 16.5710 117° Southeast 503 579 39,100  Level FlightAware ADS-B
Sat 05:23:19 AM 39.4870 16.6680 117° Southeast 503 579 39,100  Level FlightAware ADS-B
Sat 05:23:49 AM 39.4550 16.7510 117° Southeast 503 579 39,100  Level FlightAware ADS-B
Sat 05:24:27 AM 39.4160 16.8500 117° Southeast 504 580 39,100  Level FlightAware ADS-B
Sat 05:25:03 AM 39.3780 16.9470 117° Southeast 504 580 39,100  Level FlightAware ADS-B
Sat 05:25:37 AM 39.3400 17.0430 117° Southeast 504 580 39,100  Level FlightAware ADS-B
Sat 05:26:13 AM 39.3020 17.1400 117° Southeast 503 579 39,100  Level FlightAware ADS-B
Sat 05:26:49 AM 39.2640 17.2350 117° Southeast 503 579 39,100  Level FlightAware ADS-B
Sat 05:27:23 AM 39.2280 17.3280 117° Southeast 504 580 39,100  Level FlightAware ADS-B
Sat 05:27:57 AM 39.1920 17.4190 117° Southeast 504 580 39,100  Level FlightAware ADS-B
Sat 05:28:33 AM 39.1530 17.5150 118° Southeast 505 581 39,100  Level FlightAware ADS-B
Sat 05:29:09 AM 39.1150 17.6120 117° Southeast 507 583 39,100  Level FlightAware ADS-B
Sat 05:29:43 AM 39.0780 17.7020 118° Southeast 507 583 39,100  Level FlightAware ADS-B
Sat 05:30:17 AM 39.0420 17.7940 117° Southeast 506 582 39,100  Level FlightAware ADS-B
Sat 05:30:53 AM 39.0030 17.8900 118° Southeast 506 582 39,100  Level FlightAware ADS-B
Sat 05:31:29 AM 38.9640 17.9850 118° Southeast 507 583 39,100  Level FlightAware ADS-B
Sat 05:32:01 AM 38.9280 18.0730 118° Southeast 508 585 39,100  Level FlightAware ADS-B
Sat 05:32:37 AM 38.8890 18.1690 118° Southeast 509 586 39,100  Level FlightAware ADS-B
Sat 05:33:14 AM 38.8490 18.2660 118° Southeast 511 588 39,100  Level FlightAware ADS-B
Sat 05:33:49 AM 38.8090 18.3610 118° Southeast 512 589 39,100  Level FlightAware ADS-B
Sat 05:34:21 AM 38.7740 18.4470 118° Southeast 513 590 39,100  Level FlightAware ADS-B
Sat 05:34:57 AM 38.7340 18.5430 118° Southeast 514 592 39,100  Level FlightAware ADS-B
Sat 05:35:33 AM 38.6940 18.6410 118° Southeast 514 592 39,100  Level FlightAware ADS-B
Sat 05:36:10 AM 38.6530 18.7380 118° Southeast 514 592 39,100  Level FlightAware ADS-B
Sat 05:36:50 AM 38.6080 18.8460 118° Southeast 514 592 39,100  Level FlightAware ADS-B
Sat 05:37:25 AM 38.5790 18.9140 119° Southeast 513 590 39,100  Level FlightAware ADS-B
Sat 05:38:05 AM 38.5290 19.0470 116° Southeast 510 587 39,100  Level FlightAware ADS-B
Sat 05:38:40 AM 38.5020 19.1460 109° East 514 592 39,100  Level FlightAware ADS-B
Sat 05:39:15 AM 38.4730 19.2460 110° East 511 588 39,100  Level FlightAware ADS-B
Sat 05:39:50 AM 38.4430 19.3440 111° Southeast 512 589 39,100  Level FlightAware ADS-B
Sat 05:40:25 AM 38.4120 19.4460 111° Southeast 513 590 39,100  Level FlightAware ADS-B
Sat 05:41:00 AM 38.3820 19.5430 112° Southeast 515 593 39,100  Level FlightAware ADS-B
Sat 05:41:35 AM 38.3520 19.6440 111° Southeast 515 593 39,100  Level FlightAware ADS-B
Sat 05:42:10 AM 38.3220 19.7420 111° Southeast 516 594 39,100  Level FlightAware ADS-B
Sat 05:42:45 AM 38.2920 19.8430 111° Southeast 517 595 39,100  Level FlightAware ADS-B
Sat 05:43:21 AM 38.2620 19.9410 111° Southeast 518 596 39,100  Level FlightAware ADS-B
Sat 05:43:55 AM 38.2300 20.0430 112° Southeast 519 597 39,100  Level FlightAware ADS-B
Sat 05:44:30 AM 38.2000 20.1420 111° Southeast 523 602 39,100  Level FlightAware ADS-B
Sat 05:45:05 AM 38.1680 20.2440 112° Southeast 524 603 39,100  Level FlightAware ADS-B
Sat 05:45:41 AM 38.1360 20.3460 112° Southeast 526 605 39,100  Level FlightAware ADS-B
Sat 05:46:16 AM 38.1050 20.4470 111° Southeast 527 606 39,100  Level FlightAware ADS-B
Sat 05:46:51 AM 38.0730 20.5460 112° Southeast 528 608 39,100  Level FlightAware ADS-B
Sat 05:47:26 AM 38.0410 20.6490 112° Southeast 528 608 39,100  Level FlightAware ADS-B
Sat 05:48:01 AM 38.0100 20.7470 112° Southeast 528 608 39,100  Level FlightAware ADS-B
Sat 05:48:36 AM 37.9780 20.8470 112° Southeast 526 605 39,100  Level FlightAware ADS-B
Sat 05:49:16 AM 37.9410 20.9610 112° Southeast 525 604 39,100  Level FlightAware ADS-B
Sat 05:49:52 AM 37.9100 21.0610 111° Southeast 525 604 39,100  Level FlightAware ADS-B
Sat 05:50:31 AM 37.8730 21.1750 112° Southeast 526 605 39,100  Level FlightAware ADS-B
Sat 05:51:11 AM 37.8340 21.2930 113° Southeast 527 606 39,100  Level FlightAware ADS-B
Sat 05:51:44 AM 37.8040 21.3860 112° Southeast 526 605 39,100  Level FlightAware ADS-B
Sat 05:52:19 AM 37.7720 21.4850 112° Southeast 525 604 39,100  Level FlightAware ADS-B
Sat 05:52:49 AM 37.7450 21.5680 112° Southeast 524 603 39,100  Level FlightAware ADS-B
Sat 05:53:23 AM 37.7140 21.6620 113° Southeast 523 602 39,100  Level FlightAware ADS-B
Sat 05:53:59 AM 37.6790 21.7690 112° Southeast 521 600 39,100  Level FlightAware ADS-B
Sat 05:54:33 AM 37.6470 21.8660 113° Southeast 520 598 39,100  Level FlightAware ADS-B
Sat 05:55:08 AM 37.6160 21.9590 113° Southeast 519 597 39,100  Level FlightAware ADS-B
Sat 05:55:41 AM 37.5850 22.0500 113° Southeast 519 597 39,100  Level FlightAware ADS-B
Sat 05:56:19 AM 37.5490 22.1600 112° Southeast 518 596 39,100  Level FlightAware ADS-B
Sat 05:56:57 AM 37.5130 22.2650 113° Southeast 518 596 39,100  Level FlightAware ADS-B
Sat 05:57:29 AM 37.4830 22.3550 113° Southeast 517 595 39,100  Level FlightAware ADS-B
Sat 05:58:05 AM 37.4500 22.4530 113° Southeast 517 595 39,100  Level FlightAware ADS-B
Sat 05:58:40 AM 37.4170 22.5500 113° Southeast 518 596 39,100  Level FlightAware ADS-B
Sat 05:59:14 AM 37.3840 22.6460 113° Southeast 518 596 39,100  Level FlightAware ADS-B
Sat 05:59:48 AM 37.3530 22.7370 113° Southeast 520 598 39,100  Level FlightAware ADS-B
Sat 06:00:23 AM 37.3180 22.8370 114° Southeast 522 601 39,100  Level FlightAware ADS-B
Sat 06:01:00 AM 37.2830 22.9370 114° Southeast 523 602 39,100  Level FlightAware ADS-B
Sat 06:01:33 AM 37.2510 23.0310 113° Southeast 524 603 39,100  Level FlightAware ADS-B
Sat 06:02:09 AM 37.2160 23.1320 113° Southeast 522 601 39,100  Level FlightAware ADS-B
Sat 06:02:46 AM 37.1810 23.2360 113° Southeast 521 600 39,100  Level FlightAware ADS-B
Sat 06:03:18 AM 37.1510 23.3240 113° Southeast 521 600 39,100  Level FlightAware ADS-B
Sat 06:03:56 AM 37.1160 23.4270 113° Southeast 521 600 39,100  Level FlightAware ADS-B
Sat 06:04:29 AM 37.0860 23.5130 114° Southeast 520 598 39,100  Level FlightAware ADS-B
Sat 06:05:03 AM 37.0510 23.6110 114° Southeast 519 597 39,100  Level FlightAware ADS-B
Sat 06:05:41 AM 37.0120 23.7190 114° Southeast 518 596 39,100  Level FlightAware ADS-B
Sat 06:06:12 AM 36.9820 23.8020 114° Southeast 517 595 39,100  Level FlightAware ADS-B
Sat 06:06:49 AM 36.9470 23.9010 114° Southeast 513 590 39,100  Level FlightAware ADS-B
Sat 06:07:26 AM 36.9110 24.0030 114° Southeast 512 589 39,100  Level FlightAware ADS-B
Sat 06:07:58 AM 36.8790 24.0890 115° Southeast 511 588 39,100  Level FlightAware ADS-B
Sat 06:08:33 AM 36.8460 24.1830 114° Southeast 511 588 39,100  Level FlightAware ADS-B
Sat 06:09:09 AM 36.8110 24.2820 114° Southeast 509 586 39,100  Level FlightAware ADS-B
Sat 06:09:43 AM 36.7810 24.3670 114° Southeast 508 585 39,100  Level FlightAware ADS-B
Sat 06:10:19 AM 36.7450 24.4660 114° Southeast 508 585 39,100  Level FlightAware ADS-B
Sat 06:10:54 AM 36.7120 24.5590 114° Southeast 509 586 39,100  Level FlightAware ADS-B
Sat 06:11:30 AM 36.6830 24.6380 115° Southeast 511 588 39,100  Level FlightAware ADS-B
Sat 06:12:03 AM 36.6440 24.7460 114° Southeast 513 590 39,100  Level FlightAware ADS-B
Sat 06:12:37 AM 36.6100 24.8380 115° Southeast 514 592 39,100  Level FlightAware ADS-B
Sat 06:13:13 AM 36.5750 24.9350 114° Southeast 515 593 39,100  Level FlightAware ADS-B
Sat 06:13:49 AM 36.5390 25.0310 115° Southeast 515 593 39,100  Level FlightAware ADS-B
Sat 06:14:23 AM 36.5050 25.1230 115° Southeast 515 593 39,100  Level FlightAware ADS-B
Sat 06:14:59 AM 36.4690 25.2200 115° Southeast 516 594 39,100  Level FlightAware ADS-B
Sat 06:15:35 AM 36.4330 25.3170 115° Southeast 516 594 39,100  Level FlightAware ADS-B
Sat 06:16:05 AM 36.4040 25.3980 114° Southeast 516 594 39,100  Level FlightAware ADS-B
Sat 06:16:43 AM 36.3660 25.5000 115° Southeast 517 595 39,100  Level FlightAware ADS-B
Sat 06:17:19 AM 36.3310 25.5980 114° Southeast 517 595 39,100  Level FlightAware ADS-B
Sat 06:17:55 AM 36.2940 25.6970 115° Southeast 517 595 39,100  Level FlightAware ADS-B
Sat 06:18:27 AM 36.2630 25.7810 115° Southeast 517 595 39,100  Level FlightAware ADS-B
Sat 06:19:03 AM 36.2260 25.8800 115° Southeast 518 596 39,100  Level FlightAware ADS-B
Sat 06:19:39 AM 36.1910 25.9750 115° Southeast 519 597 39,100  Level FlightAware ADS-B
Sat 06:20:16 AM 36.1540 26.0720 115° Southeast 520 598 39,100  Level FlightAware ADS-B
Sat 06:20:47 AM 36.1210 26.1600 115° Southeast 521 600 39,100  Level FlightAware ADS-B
Sat 06:21:23 AM 36.0840 26.2560 115° Southeast 523 602 39,100  Level FlightAware ADS-B
Sat 06:21:59 AM 36.0470 26.3550 115° Southeast 524 603 39,100  Level FlightAware ADS-B
Sat 06:22:33 AM 36.0130 26.4440 115° Southeast 524 603 39,100  Level FlightAware ADS-B
Sat 06:23:07 AM 35.9770 26.5380 115° Southeast 525 604 39,100  Level FlightAware ADS-B
Sat 06:23:43 AM 35.9400 26.6340 115° Southeast 526 605 39,100  Level FlightAware ADS-B
Sat 06:24:19 AM 35.9020 26.7320 116° Southeast 527 606 39,100  Level FlightAware ADS-B
Sat 06:25:12 AM 35.8530 26.8610 115° Southeast 526 605 39,100  Level FlightAware ADS-B
Sat 06:25:48 AM 35.8210 26.9450 115° Southeast 526 605 39,100  Level FlightAware ADS-B
Sat 06:26:37 AM 35.7580 27.1070 116° Southeast 528 608 39,100  Level FlightAware ADS-B
Sat 06:27:15 AM 35.7170 27.2120 116° Southeast 529 609 39,100  Level FlightAware ADS-B
Sat 06:27:49 AM 35.6810 27.3050 115° Southeast 530 610 39,100  Level FlightAware ADS-B
Sat 06:28:23 AM 35.6460 27.3960 115° Southeast 529 609 39,100  Level FlightAware ADS-B
Sat 06:28:59 AM 35.6080 27.4930 116° Southeast 530 610 39,100  Level FlightAware ADS-B
Sat 06:29:35 AM 35.5690 27.5910 116° Southeast 529 609 39,100  Level FlightAware ADS-B
Sat 06:30:07 AM 35.5350 27.6790 115° Southeast 530 610 39,100  Level FlightAware ADS-B
Sat 06:30:44 AM 35.4970 27.7770 115° Southeast 532 612 39,100  Level FlightAware ADS-B
Sat 06:31:19 AM 35.4590 27.8750 115° Southeast 533 613 39,100  Level FlightAware ADS-B
Sat 06:31:51 AM 35.4240 27.9620 116° Southeast 533 613 39,100  Level FlightAware ADS-B
Sat 06:32:27 AM 35.3860 28.0580 116° Southeast 531 611 39,100  Level FlightAware ADS-B
Sat 06:33:03 AM 35.3470 28.1570 116° Southeast 532 612 39,100  Level FlightAware ADS-B
Sat 06:33:57 AM 35.2950 28.2910 115° Southeast 533 613 39,100  Level FlightAware ADS-B
Sat 06:34:35 AM 35.2480 28.4060 117° Southeast 533 613 39,100  Level FlightAware ADS-B
Sat 06:35:05 AM 35.2160 28.4850 116° Southeast 532 612 39,100  Level FlightAware ADS-B
Sat 06:35:43 AM 35.1740 28.5900 116° Southeast 533 613 39,100  Level FlightAware ADS-B
Sat 06:36:21 AM 35.1340 28.6880 117° Southeast 533 613 39,100  Level FlightAware ADS-B
Sat 06:37:07 AM 35.0820 28.8170 116° Southeast 534 615 39,100  Level FlightAware ADS-B
Sat 06:38:02 AM 35.0280 28.9530 116° Southeast 534 615 39,100  Level FlightAware ADS-B
Sat 06:38:39 AM 34.9830 29.0620 117° Southeast 536 617 39,100  Level FlightAware ADS-B
Sat 06:39:17 AM 34.9400 29.1670 117° Southeast 536 617 39,100  Level FlightAware ADS-B
Sat 06:39:48 AM 34.9060 29.2510 116° Southeast 535 616 39,100  Level FlightAware ADS-B
Sat 06:40:35 AM 34.8600 29.3640 116° Southeast 534 615 39,100  Level FlightAware ADS-B
Sat 06:41:05 AM 34.8210 29.4590 117° Southeast 535 616 39,100  Level FlightAware ADS-B
Sat 06:41:41 AM 34.7800 29.5570 117° Southeast 536 617 39,100  Level FlightAware ADS-B
Sat 06:42:15 AM 34.7460 29.6390 117° Southeast 536 617 39,100  Level FlightAware ADS-B
Sat 06:42:50 AM 34.7040 29.7400 117° Southeast 536 617 39,100  Level FlightAware ADS-B
Sat 06:43:25 AM 34.6670 29.8260 118° Southeast 534 615 39,100  Level FlightAware ADS-B
Sat 06:44:04 AM 34.6310 29.9160 116° Southeast 534 615 39,100  Level FlightAware ADS-B
Sat 06:44:40 AM 34.5980 29.9980 116° Southeast 534 615 39,100 -78 Level FlightAware ADS-B
Sat 06:45:21 AM 34.5290 30.1390 121° Southeast 533 613 39,000 -396 Descending FlightAware ADS-B
Sat 06:46:11 AM 34.4660 30.2710 120° Southeast 523 602 38,500 -600 Descending FlightAware ADS-B
Sat 06:46:51 AM 34.4170 30.3740 120° Southeast 514 592 38,100 -761 Descending FlightAware ADS-B
Sat 06:47:22 AM 34.3820 30.4480 120° Southeast 513 590 37,600 -896 Descending FlightAware ADS-B
Sat 06:47:58 AM 34.3390 30.5370 120° Southeast 510 587 37,100 -423 Descending FlightAware ADS-B
Sat 06:48:33 AM 34.2980 30.6220 120° Southeast 497 572 37,100  Level FlightAware ADS-B
Sat 06:49:09 AM 34.2570 30.7090 120° Southeast 497 572 37,100  Level FlightAware ADS-B
Sat 06:49:39 AM 34.2210 30.7840 120° Southeast 500 575 37,100  Level FlightAware ADS-B
Sat 06:50:25 AM 34.1780 30.8770 119° Southeast 500 575 37,100  Level FlightAware ADS-B
Sat 06:51:04 AM 34.1230 30.9900 120° Southeast 509 586 37,100  Level FlightAware ADS-B
Sat 06:51:35 AM 34.0840 31.0700 120° Southeast 511 588 37,100  Level FlightAware ADS-B
Sat 06:52:11 AM 34.0430 31.1540 120° Southeast 513 590 37,100  Level FlightAware ADS-B
Sat 06:52:46 AM 34.0000 31.2440 120° Southeast 515 593 37,100  Level FlightAware ADS-B
Sat 06:53:21 AM 33.9580 31.3300 120° Southeast 518 596 37,100  Level FlightAware ADS-B
Sat 06:53:56 AM 33.9140 31.4210 120° Southeast 519 597 37,100  Level FlightAware ADS-B
Sat 06:54:31 AM 33.8740 31.5030 120° Southeast 518 596 37,100  Level FlightAware ADS-B
Sat 06:55:06 AM 33.8290 31.5960 120° Southeast 519 597 37,100  Level FlightAware ADS-B
Sat 06:55:37 AM 33.7920 31.6710 121° Southeast 520 598 37,100  Level FlightAware ADS-B
Sat 06:56:22 AM 33.7400 31.7770 121° Southeast 519 597 37,100  Level FlightAware ADS-B
Sat 06:56:57 AM 33.6940 31.8700 121° Southeast 519 597 37,100  Level FlightAware ADS-B
Sat 06:57:32 AM 33.6490 31.9600 121° Southeast 518 596 37,100  Level FlightAware ADS-B
Sat 06:58:08 AM 33.6070 32.0460 120° Southeast 518 596 37,100  Level FlightAware ADS-B
Sat 06:58:43 AM 33.5620 32.1350 121° Southeast 517 595 37,100  Level FlightAware ADS-B
Sat 06:59:31 AM 33.5030 32.2530 121° Southeast 521 600 37,100  Level FlightAware ADS-B
Sat 07:00:08 AM 33.4560 32.3470 121° Southeast 520 598 37,100 -83 Level FlightAware ADS-B
Sat 07:00:43 AM 33.4130 32.4320 121° Southeast 521 600 37,000 -1,000 Descending FlightAware ADS-B
Sat 07:01:14 AM 33.3720 32.5110 122° Southeast 531 611 36,000 -1,588 Descending FlightAware ADS-B
Sat 07:01:51 AM 33.3320 32.5900 121° Southeast 532 612 35,200 -1,333 Descending FlightAware ADS-B
Sat 07:02:26 AM 33.2850 32.6840 121° Southeast 529 609 34,400 -1,412 Descending FlightAware ADS-B
Sat 07:03:16 AM 33.2160 32.8180 122° Southeast 529 609 33,200 -1,660 Descending FlightAware ADS-B
Sat 07:04:00 AM 33.1610 32.9260 121° Southeast 520 598 31,800 -2,260 Descending FlightAware ADS-B
Sat 07:04:33 AM 33.1210 33.0030 122° Southeast 516 594 30,300 -2,647 Descending FlightAware ADS-B
Sat 07:05:08 AM 33.0760 33.0910 121° Southeast 505 581 28,800 -2,348 Descending FlightAware ADS-B
Sat 07:05:42 AM 33.0360 33.1660 122° Southeast 495 570 27,600 -1,833 Descending FlightAware ADS-B
Sat 07:06:20 AM 32.9900 33.2550 122° Southeast 493 567 26,600 -1,944 Descending FlightAware ADS-B
Sat 07:06:53 AM 32.9500 33.3320 122° Southeast 470 541 25,300 -2,143 Descending FlightAware ADS-B
Sat 07:07:30 AM 32.9100 33.4090 122° Southeast 430 495 24,100 -1,890 Descending FlightAware ADS-B
Sat 07:08:06 AM 32.8720 33.4810 122° Southeast 396 456 23,000 -1,853 Descending FlightAware ADS-B
Sat 07:08:38 AM 32.8420 33.5380 122° Southeast 369 425 22,000 -1,676 Descending FlightAware ADS-B
Sat 07:09:14 AM 32.8110 33.5970 122° Southeast 353 406 21,100 -1,543 Descending FlightAware ADS-B
Sat 07:09:48 AM 32.7810 33.6530 122° Southeast 345 397 20,200 -1,500 Descending FlightAware ADS-B
Sat 07:10:30 AM 32.7470 33.7200 121° Southeast 336 387 19,200 -1,459 Descending FlightAware ADS-B
Sat 07:11:02 AM 32.7200 33.7710 122° Southeast 330 380 18,400 -1,500 Descending FlightAware ADS-B
Sat 07:11:38 AM 32.6880 33.8230 126° Southeast 322 371 17,500 -1,421 Descending FlightAware ADS-B
Sat 07:12:18 AM 32.6510 33.8800 128° Southeast 340 391 16,600 -1,367 Descending FlightAware ADS-B
Sat 07:12:57 AM 32.6140 33.9350 129° Southeast 333 383 15,700 -1,325 Descending FlightAware ADS-B
Sat 07:13:35 AM 32.5780 33.9890 128° Southeast 323 372 14,900 -1,343 Descending FlightAware ADS-B
Sat 07:14:04 AM 32.5520 34.0300 127° Southeast 316 364 14,200 -1,304 Descending FlightAware ADS-B
Sat 07:14:44 AM 32.5160 34.0840 128° Southeast 305 351 13,400 -1,200 Descending FlightAware ADS-B
Sat 07:15:19 AM 32.4860 34.1290 128° Southeast 308 354 12,700 -1,254 Descending FlightAware ADS-B
Sat 07:15:51 AM 32.4570 34.1710 129° Southeast 316 364 12,000 -1,364 Descending FlightAware ADS-B
Sat 07:16:25 AM 32.4250 34.2170 129° Southeast 307 353 11,200 -867 Descending FlightAware ADS-B
Sat 07:17:14 AM 32.3850 34.2730 130° Southeast 303 349 10,800 -282 Descending FlightAware ADS-B
Sat 07:17:50 AM 32.3570 34.3120 130° Southeast 303 349 10,800 -1,895 Level FlightAware ADS-B
Sat 07:18:11 AM 32.3330 34.3490 128° Southeast 293 337 9,000 -2,880 Descending FlightAware ADS-B
Sat 07:18:40 AM 32.3090 34.3840 129° Southeast 286 329 8,400 -1,224 Descending FlightAware ADS-B
Sat 07:19:00 AM 32.2930 34.4090 127° Southeast 282 325 8,000 -1,000 Descending FlightAware ADS-B
Sat 07:19:16 AM 32.2820 34.4240 131° Southeast 279 321 7,800 -973 Descending FlightAware ADS-B
Sat 07:19:37 AM 32.2680 34.4460 127° Southeast 275 316 7,400 -1,171 Descending FlightAware ADS-B
Sat 07:19:57 AM 32.2480 34.4740 130° Southeast 271 312 7,000 -1,143 Descending FlightAware ADS-B
Sat 07:20:19 AM 32.2310 34.5040 124° Southeast 274 315 6,600 -1,077 Descending FlightAware ADS-B
Sat 07:20:36 AM 32.2230 34.5200 121° Southeast 273 314 6,300 -545 Descending FlightAware ADS-B
Sat 07:21:14 AM 32.2010 34.5640 121° Southeast 269 310 6,100 -915 Descending FlightAware ADS-B
Sat 07:21:35 AM 32.1860 34.5940 121° Southeast 257 296 5,400 -1,412 Descending FlightAware ADS-B
Sat 07:22:05 AM 32.1650 34.6320 123° Southeast 264 304 4,900 -600 Descending FlightAware ADS-B
Sat 07:22:25 AM 32.1510 34.6560 125° Southeast 266 306 4,900  Level FlightAware ADS-B
Sat 07:22:44 AM 32.1390 34.6750 127° Southeast 265 305 4,900  Level FlightAware ADS-B
Sat 07:23:10 AM 32.1240 34.7020 123° Southeast 265 305 4,900  Level FlightAware ADS-B
Sat 07:24:29 AM 32.0620 34.8020 126° Southeast 266 306 4,900 -71 Level FlightAware ADS-B
Sat 07:24:34 AM 32.0570 34.8070 140° Southeast 244 281 4,800 -429 Descending FlightAware ADS-B
Sat 07:25:11 AM 32.0280 34.8390 137° Southeast 235 270 4,600 -600 Descending FlightAware ADS-B
Sat 07:25:34 AM 32.0090 34.8590 138° Southeast 233 268 4,200 -1,250 Descending FlightAware ADS-B
Sat 07:25:59 AM 31.9910 34.8800 135° Southeast 235 270 3,600 -1,600 Descending FlightAware ADS-B
Sat 07:26:19 AM 31.9840 34.9050 108° East 235 270 3,000 -1,333 Descending FlightAware ADS-B
Sat 07:26:44 AM 31.9890 34.9300 77° East 193 222 2,600 -933 Descending FlightAware ADS-B
Sat 07:27:04 AM 31.9930 34.9510 77° East 185 213 2,300 -1,000 Descending FlightAware ADS-B
Sat 07:27:14 AM 31.9960 34.9610 71° East 175 201 2,100 -1,000 Descending FlightAware ADS-B
Sat 07:27:34 AM 32.0060 34.9740 48° Northeast 171 197 1,800 -923 Descending FlightAware ADS-B
Sat 07:27:40 AM 32.0120 34.9760 16° North 166 191 1,700 -1,000 Descending FlightAware ADS-B
Sat 07:28:04 AM 32.0300 34.9710 347° North 155 178 1,300 -857 Descending FlightAware ADS-B
Sat 07:28:29 AM 32.0370 34.9540 296° West 160 184 1,000 -800 Descending FlightAware ADS-B
Sat 07:28:49 AM 32.0340 34.9390 257° West 161 185 700 -436 Descending FlightAware ADS-B
Sat 07:29:24 AM 32.0290 34.9130 257° West 161 185 600 -171 Descending FlightAware ADS-B

Login

Don't have an account? Register now (free) for customized features, flight alerts, and more!